<?xml version="1.0" encoding="UTF-8" standalone="no" ?>
<gpx xmlns="http://www.topografix.com/GPX/1/1" xmlns:xsi="http://www.w3.org/2001/XMLSchema-instance" xsi:schemaLocation="http://www.topografix.com/GPX/1/1 http://www.topografix.com/GPX/1/1/gpx.xsd" version="1.1" creator="VisuGPX - https://www.visugpx.com">
  <metadata>
    <name>Rando Galette avec L'Yvette</name>
    <desc><![CDATA[Belle rando dans la haute vallée de Chévreuse de la gare de Courcelle-sur-Yvette à celle de Saint-Remy.  (19 km ) . A lire sur : [url]http://trekkingzone.fr[/url]

]]></desc>
  </metadata>
  <trk>
    <name><![CDATA[17 janv. 2021 à 09:56:10]]></name>
    <cmt><![CDATA[17 janv. 2021 à 09:56:10]]></cmt>
    <trkseg>
      <trkpt lat="48.70086" lon="2.0992">
        <ele>79</ele>
        <time>2021-01-17T08:56:21Z</time>
      </trkpt>
      <trkpt lat="48.70086" lon="2.0992">
        <ele>79</ele>
        <time>2021-01-17T08:56:22Z</time>
      </trkpt>
      <trkpt lat="48.70089" lon="2.09921">
        <ele>79</ele>
        <time>2021-01-17T09:09:54Z</time>
      </trkpt>
      <trkpt lat="48.70082" lon="2.09919">
        <ele>79</ele>
        <time>2021-01-17T09:10:52Z</time>
      </trkpt>
      <trkpt lat="48.70075" lon="2.09919">
        <ele>79</ele>
        <time>2021-01-17T09:11:31Z</time>
      </trkpt>
      <trkpt lat="48.70068" lon="2.09919">
        <ele>79</ele>
        <time>2021-01-17T09:11:39Z</time>
      </trkpt>
      <trkpt lat="48.70042" lon="2.09912">
        <ele>82</ele>
        <time>2021-01-17T09:12:05Z</time>
      </trkpt>
      <trkpt lat="48.70025" lon="2.09913">
        <ele>85</ele>
        <time>2021-01-17T09:12:22Z</time>
      </trkpt>
      <trkpt lat="48.7002" lon="2.09911">
        <ele>85</ele>
        <time>2021-01-17T09:12:26Z</time>
      </trkpt>
      <trkpt lat="48.70011" lon="2.09903">
        <ele>86</ele>
        <time>2021-01-17T09:12:34Z</time>
      </trkpt>
      <trkpt lat="48.69992" lon="2.09892">
        <ele>89</ele>
        <time>2021-01-17T09:12:50Z</time>
      </trkpt>
      <trkpt lat="48.69983" lon="2.09884">
        <ele>90</ele>
        <time>2021-01-17T09:12:58Z</time>
      </trkpt>
      <trkpt lat="48.69978" lon="2.09882">
        <ele>90</ele>
        <time>2021-01-17T09:13:02Z</time>
      </trkpt>
      <trkpt lat="48.69975" lon="2.09879">
        <ele>90</ele>
        <time>2021-01-17T09:13:06Z</time>
      </trkpt>
      <trkpt lat="48.69972" lon="2.09873">
        <ele>91</ele>
        <time>2021-01-17T09:13:10Z</time>
      </trkpt>
      <trkpt lat="48.6997" lon="2.09866">
        <ele>91</ele>
        <time>2021-01-17T09:13:14Z</time>
      </trkpt>
      <trkpt lat="48.69976" lon="2.09837">
        <ele>92</ele>
        <time>2021-01-17T09:13:30Z</time>
      </trkpt>
      <trkpt lat="48.69974" lon="2.0983">
        <ele>92</ele>
        <time>2021-01-17T09:13:34Z</time>
      </trkpt>
      <trkpt lat="48.69971" lon="2.09825">
        <ele>92</ele>
        <time>2021-01-17T09:13:38Z</time>
      </trkpt>
      <trkpt lat="48.69957" lon="2.09817">
        <ele>94</ele>
        <time>2021-01-17T09:13:50Z</time>
      </trkpt>
      <trkpt lat="48.69939" lon="2.09805">
        <ele>94</ele>
        <time>2021-01-17T09:14:06Z</time>
      </trkpt>
      <trkpt lat="48.69934" lon="2.09803">
        <ele>95</ele>
        <time>2021-01-17T09:14:10Z</time>
      </trkpt>
      <trkpt lat="48.69924" lon="2.09799">
        <ele>95</ele>
        <time>2021-01-17T09:14:18Z</time>
      </trkpt>
      <trkpt lat="48.69919" lon="2.09797">
        <ele>95</ele>
        <time>2021-01-17T09:14:22Z</time>
      </trkpt>
      <trkpt lat="48.69887" lon="2.09777">
        <ele>99</ele>
        <time>2021-01-17T09:14:52Z</time>
      </trkpt>
      <trkpt lat="48.69878" lon="2.09774">
        <ele>100</ele>
        <time>2021-01-17T09:15:00Z</time>
      </trkpt>
      <trkpt lat="48.69842" lon="2.09753">
        <ele>104</ele>
        <time>2021-01-17T09:15:33Z</time>
      </trkpt>
      <trkpt lat="48.69807" lon="2.09728">
        <ele>107</ele>
        <time>2021-01-17T09:16:06Z</time>
      </trkpt>
      <trkpt lat="48.69802" lon="2.09726">
        <ele>107</ele>
        <time>2021-01-17T09:16:10Z</time>
      </trkpt>
      <trkpt lat="48.69791" lon="2.09722">
        <ele>108</ele>
        <time>2021-01-17T09:16:18Z</time>
      </trkpt>
      <trkpt lat="48.69786" lon="2.09719">
        <ele>109</ele>
        <time>2021-01-17T09:16:22Z</time>
      </trkpt>
      <trkpt lat="48.6978" lon="2.09724">
        <ele>109</ele>
        <time>2021-01-17T09:16:46Z</time>
      </trkpt>
      <trkpt lat="48.69779" lon="2.0973">
        <ele>109</ele>
        <time>2021-01-17T09:16:50Z</time>
      </trkpt>
      <trkpt lat="48.6978" lon="2.09722">
        <ele>109</ele>
        <time>2021-01-17T09:17:24Z</time>
      </trkpt>
      <trkpt lat="48.69783" lon="2.09708">
        <ele>109</ele>
        <time>2021-01-17T09:17:32Z</time>
      </trkpt>
      <trkpt lat="48.69774" lon="2.09702">
        <ele>110</ele>
        <time>2021-01-17T09:17:40Z</time>
      </trkpt>
      <trkpt lat="48.69747" lon="2.09689">
        <ele>114</ele>
        <time>2021-01-17T09:18:03Z</time>
      </trkpt>
      <trkpt lat="48.69738" lon="2.09688">
        <ele>116</ele>
        <time>2021-01-17T09:18:17Z</time>
      </trkpt>
      <trkpt lat="48.69728" lon="2.09695">
        <ele>118</ele>
        <time>2021-01-17T09:18:35Z</time>
      </trkpt>
      <trkpt lat="48.69722" lon="2.09709">
        <ele>120</ele>
        <time>2021-01-17T09:18:53Z</time>
      </trkpt>
      <trkpt lat="48.69696" lon="2.09736">
        <ele>126</ele>
        <time>2021-01-17T09:19:28Z</time>
      </trkpt>
      <trkpt lat="48.69691" lon="2.09747">
        <ele>128</ele>
        <time>2021-01-17T09:19:38Z</time>
      </trkpt>
      <trkpt lat="48.69678" lon="2.09763">
        <ele>132</ele>
        <time>2021-01-17T09:19:55Z</time>
      </trkpt>
      <trkpt lat="48.69664" lon="2.09806">
        <ele>138</ele>
        <time>2021-01-17T09:20:35Z</time>
      </trkpt>
      <trkpt lat="48.69643" lon="2.09832">
        <ele>142</ele>
        <time>2021-01-17T09:21:11Z</time>
      </trkpt>
      <trkpt lat="48.69628" lon="2.09844">
        <ele>145</ele>
        <time>2021-01-17T09:21:30Z</time>
      </trkpt>
      <trkpt lat="48.69618" lon="2.09852">
        <ele>147</ele>
        <time>2021-01-17T09:21:45Z</time>
      </trkpt>
      <trkpt lat="48.69607" lon="2.09859">
        <ele>150</ele>
        <time>2021-01-17T09:22:03Z</time>
      </trkpt>
      <trkpt lat="48.69567" lon="2.09874">
        <ele>159</ele>
        <time>2021-01-17T09:22:50Z</time>
      </trkpt>
      <trkpt lat="48.69547" lon="2.09869">
        <ele>162</ele>
        <time>2021-01-17T09:23:13Z</time>
      </trkpt>
      <trkpt lat="48.69536" lon="2.0987">
        <ele>162</ele>
        <time>2021-01-17T09:23:28Z</time>
      </trkpt>
      <trkpt lat="48.69529" lon="2.09868">
        <ele>162</ele>
        <time>2021-01-17T09:23:52Z</time>
      </trkpt>
      <trkpt lat="48.69524" lon="2.09867">
        <ele>162</ele>
        <time>2021-01-17T09:23:56Z</time>
      </trkpt>
      <trkpt lat="48.69515" lon="2.09866">
        <ele>161</ele>
        <time>2021-01-17T09:26:23Z</time>
      </trkpt>
      <trkpt lat="48.69508" lon="2.09871">
        <ele>160</ele>
        <time>2021-01-17T09:30:03Z</time>
      </trkpt>
      <trkpt lat="48.69503" lon="2.0987">
        <ele>160</ele>
        <time>2021-01-17T09:30:06Z</time>
      </trkpt>
      <trkpt lat="48.69496" lon="2.09873">
        <ele>161</ele>
        <time>2021-01-17T09:30:16Z</time>
      </trkpt>
      <trkpt lat="48.6948" lon="2.09873">
        <ele>161</ele>
        <time>2021-01-17T09:30:29Z</time>
      </trkpt>
      <trkpt lat="48.6947" lon="2.0987">
        <ele>161</ele>
        <time>2021-01-17T09:30:37Z</time>
      </trkpt>
      <trkpt lat="48.69453" lon="2.09873">
        <ele>161</ele>
        <time>2021-01-17T09:30:49Z</time>
      </trkpt>
      <trkpt lat="48.69448" lon="2.09871">
        <ele>161</ele>
        <time>2021-01-17T09:30:52Z</time>
      </trkpt>
      <trkpt lat="48.69438" lon="2.0986">
        <ele>161</ele>
        <time>2021-01-17T09:31:04Z</time>
      </trkpt>
      <trkpt lat="48.69428" lon="2.09864">
        <ele>161</ele>
        <time>2021-01-17T09:31:11Z</time>
      </trkpt>
      <trkpt lat="48.69418" lon="2.09864">
        <ele>161</ele>
        <time>2021-01-17T09:31:18Z</time>
      </trkpt>
      <trkpt lat="48.69409" lon="2.0986">
        <ele>161</ele>
        <time>2021-01-17T09:31:25Z</time>
      </trkpt>
      <trkpt lat="48.69401" lon="2.0986">
        <ele>160</ele>
        <time>2021-01-17T09:31:33Z</time>
      </trkpt>
      <trkpt lat="48.69392" lon="2.0987">
        <ele>160</ele>
        <time>2021-01-17T09:31:43Z</time>
      </trkpt>
      <trkpt lat="48.69385" lon="2.09882">
        <ele>159</ele>
        <time>2021-01-17T09:31:52Z</time>
      </trkpt>
      <trkpt lat="48.69374" lon="2.0988">
        <ele>159</ele>
        <time>2021-01-17T09:31:59Z</time>
      </trkpt>
      <trkpt lat="48.69369" lon="2.09877">
        <ele>159</ele>
        <time>2021-01-17T09:32:03Z</time>
      </trkpt>
      <trkpt lat="48.69359" lon="2.09869">
        <ele>159</ele>
        <time>2021-01-17T09:32:11Z</time>
      </trkpt>
      <trkpt lat="48.69353" lon="2.09867">
        <ele>160</ele>
        <time>2021-01-17T09:32:16Z</time>
      </trkpt>
      <trkpt lat="48.69348" lon="2.09865">
        <ele>159</ele>
        <time>2021-01-17T09:32:20Z</time>
      </trkpt>
      <trkpt lat="48.6934" lon="2.0986">
        <ele>159</ele>
        <time>2021-01-17T09:32:27Z</time>
      </trkpt>
      <trkpt lat="48.69335" lon="2.09858">
        <ele>159</ele>
        <time>2021-01-17T09:32:31Z</time>
      </trkpt>
      <trkpt lat="48.69331" lon="2.09857">
        <ele>159</ele>
        <time>2021-01-17T09:32:35Z</time>
      </trkpt>
      <trkpt lat="48.69326" lon="2.09853">
        <ele>159</ele>
        <time>2021-01-17T09:32:39Z</time>
      </trkpt>
      <trkpt lat="48.69322" lon="2.09851">
        <ele>159</ele>
        <time>2021-01-17T09:32:43Z</time>
      </trkpt>
      <trkpt lat="48.69303" lon="2.09842">
        <ele>158</ele>
        <time>2021-01-17T09:33:00Z</time>
      </trkpt>
      <trkpt lat="48.69301" lon="2.09836">
        <ele>158</ele>
        <time>2021-01-17T09:33:04Z</time>
      </trkpt>
      <trkpt lat="48.69283" lon="2.09832">
        <ele>158</ele>
        <time>2021-01-17T09:33:19Z</time>
      </trkpt>
      <trkpt lat="48.69278" lon="2.09828">
        <ele>158</ele>
        <time>2021-01-17T09:33:24Z</time>
      </trkpt>
      <trkpt lat="48.69268" lon="2.09826">
        <ele>158</ele>
        <time>2021-01-17T09:33:32Z</time>
      </trkpt>
      <trkpt lat="48.69263" lon="2.09824">
        <ele>157</ele>
        <time>2021-01-17T09:33:37Z</time>
      </trkpt>
      <trkpt lat="48.69253" lon="2.09821">
        <ele>157</ele>
        <time>2021-01-17T09:33:46Z</time>
      </trkpt>
      <trkpt lat="48.69248" lon="2.09819">
        <ele>157</ele>
        <time>2021-01-17T09:33:50Z</time>
      </trkpt>
      <trkpt lat="48.69243" lon="2.09815">
        <ele>157</ele>
        <time>2021-01-17T09:33:54Z</time>
      </trkpt>
      <trkpt lat="48.69238" lon="2.09813">
        <ele>157</ele>
        <time>2021-01-17T09:33:58Z</time>
      </trkpt>
      <trkpt lat="48.69233" lon="2.09814">
        <ele>157</ele>
        <time>2021-01-17T09:34:02Z</time>
      </trkpt>
      <trkpt lat="48.69229" lon="2.09812">
        <ele>157</ele>
        <time>2021-01-17T09:34:06Z</time>
      </trkpt>
      <trkpt lat="48.69214" lon="2.09803">
        <ele>157</ele>
        <time>2021-01-17T09:34:20Z</time>
      </trkpt>
      <trkpt lat="48.69207" lon="2.09802">
        <ele>157</ele>
        <time>2021-01-17T09:34:27Z</time>
      </trkpt>
      <trkpt lat="48.69197" lon="2.09799">
        <ele>157</ele>
        <time>2021-01-17T09:34:36Z</time>
      </trkpt>
      <trkpt lat="48.69192" lon="2.09797">
        <ele>157</ele>
        <time>2021-01-17T09:34:41Z</time>
      </trkpt>
      <trkpt lat="48.69187" lon="2.09796">
        <ele>157</ele>
        <time>2021-01-17T09:34:45Z</time>
      </trkpt>
      <trkpt lat="48.69171" lon="2.09793">
        <ele>157</ele>
        <time>2021-01-17T09:34:58Z</time>
      </trkpt>
      <trkpt lat="48.69163" lon="2.09787">
        <ele>157</ele>
        <time>2021-01-17T09:35:06Z</time>
      </trkpt>
      <trkpt lat="48.69158" lon="2.09785">
        <ele>157</ele>
        <time>2021-01-17T09:35:10Z</time>
      </trkpt>
      <trkpt lat="48.69153" lon="2.09784">
        <ele>157</ele>
        <time>2021-01-17T09:35:14Z</time>
      </trkpt>
      <trkpt lat="48.69114" lon="2.09773">
        <ele>156</ele>
        <time>2021-01-17T09:35:47Z</time>
      </trkpt>
      <trkpt lat="48.69103" lon="2.0977">
        <ele>156</ele>
        <time>2021-01-17T09:35:56Z</time>
      </trkpt>
      <trkpt lat="48.69089" lon="2.09761">
        <ele>156</ele>
        <time>2021-01-17T09:36:09Z</time>
      </trkpt>
      <trkpt lat="48.69083" lon="2.09759">
        <ele>156</ele>
        <time>2021-01-17T09:36:14Z</time>
      </trkpt>
      <trkpt lat="48.69078" lon="2.09757">
        <ele>156</ele>
        <time>2021-01-17T09:36:18Z</time>
      </trkpt>
      <trkpt lat="48.69073" lon="2.09755">
        <ele>156</ele>
        <time>2021-01-17T09:36:22Z</time>
      </trkpt>
      <trkpt lat="48.69069" lon="2.09756">
        <ele>156</ele>
        <time>2021-01-17T09:36:25Z</time>
      </trkpt>
      <trkpt lat="48.69063" lon="2.09752">
        <ele>156</ele>
        <time>2021-01-17T09:36:30Z</time>
      </trkpt>
      <trkpt lat="48.69058" lon="2.09752">
        <ele>155</ele>
        <time>2021-01-17T09:36:35Z</time>
      </trkpt>
      <trkpt lat="48.69043" lon="2.09747">
        <ele>155</ele>
        <time>2021-01-17T09:36:48Z</time>
      </trkpt>
      <trkpt lat="48.69038" lon="2.09746">
        <ele>155</ele>
        <time>2021-01-17T09:36:53Z</time>
      </trkpt>
      <trkpt lat="48.69027" lon="2.09741">
        <ele>155</ele>
        <time>2021-01-17T09:37:03Z</time>
      </trkpt>
      <trkpt lat="48.69018" lon="2.09741">
        <ele>156</ele>
        <time>2021-01-17T09:37:12Z</time>
      </trkpt>
      <trkpt lat="48.69013" lon="2.09739">
        <ele>156</ele>
        <time>2021-01-17T09:37:17Z</time>
      </trkpt>
      <trkpt lat="48.69009" lon="2.09736">
        <ele>156</ele>
        <time>2021-01-17T09:37:21Z</time>
      </trkpt>
      <trkpt lat="48.69002" lon="2.0973">
        <ele>156</ele>
        <time>2021-01-17T09:37:30Z</time>
      </trkpt>
      <trkpt lat="48.69003" lon="2.09721">
        <ele>157</ele>
        <time>2021-01-17T09:37:46Z</time>
      </trkpt>
      <trkpt lat="48.69032" lon="2.09681">
        <ele>157</ele>
        <time>2021-01-17T09:38:19Z</time>
      </trkpt>
      <trkpt lat="48.69035" lon="2.09675">
        <ele>157</ele>
        <time>2021-01-17T09:38:23Z</time>
      </trkpt>
      <trkpt lat="48.69045" lon="2.09659">
        <ele>157</ele>
        <time>2021-01-17T09:38:36Z</time>
      </trkpt>
      <trkpt lat="48.69072" lon="2.09619">
        <ele>159</ele>
        <time>2021-01-17T09:39:08Z</time>
      </trkpt>
      <trkpt lat="48.69095" lon="2.09589">
        <ele>160</ele>
        <time>2021-01-17T09:39:32Z</time>
      </trkpt>
      <trkpt lat="48.69098" lon="2.09583">
        <ele>160</ele>
        <time>2021-01-17T09:39:36Z</time>
      </trkpt>
      <trkpt lat="48.69102" lon="2.09578">
        <ele>160</ele>
        <time>2021-01-17T09:39:41Z</time>
      </trkpt>
      <trkpt lat="48.69106" lon="2.09571">
        <ele>160</ele>
        <time>2021-01-17T09:39:49Z</time>
      </trkpt>
      <trkpt lat="48.69109" lon="2.09563">
        <ele>161</ele>
        <time>2021-01-17T09:39:54Z</time>
      </trkpt>
      <trkpt lat="48.69113" lon="2.09557">
        <ele>161</ele>
        <time>2021-01-17T09:39:59Z</time>
      </trkpt>
      <trkpt lat="48.69135" lon="2.09528">
        <ele>162</ele>
        <time>2021-01-17T09:40:24Z</time>
      </trkpt>
      <trkpt lat="48.69138" lon="2.09521">
        <ele>162</ele>
        <time>2021-01-17T09:40:29Z</time>
      </trkpt>
      <trkpt lat="48.69142" lon="2.09517">
        <ele>162</ele>
        <time>2021-01-17T09:40:33Z</time>
      </trkpt>
      <trkpt lat="48.69168" lon="2.09468">
        <ele>162</ele>
        <time>2021-01-17T09:41:05Z</time>
      </trkpt>
      <trkpt lat="48.69174" lon="2.09457">
        <ele>162</ele>
        <time>2021-01-17T09:41:13Z</time>
      </trkpt>
      <trkpt lat="48.69192" lon="2.0943">
        <ele>162</ele>
        <time>2021-01-17T09:41:33Z</time>
      </trkpt>
      <trkpt lat="48.69199" lon="2.09418">
        <ele>162</ele>
        <time>2021-01-17T09:41:41Z</time>
      </trkpt>
      <trkpt lat="48.69201" lon="2.09411">
        <ele>162</ele>
        <time>2021-01-17T09:41:45Z</time>
      </trkpt>
      <trkpt lat="48.69204" lon="2.09405">
        <ele>162</ele>
        <time>2021-01-17T09:41:49Z</time>
      </trkpt>
      <trkpt lat="48.69228" lon="2.09353">
        <ele>161</ele>
        <time>2021-01-17T09:42:21Z</time>
      </trkpt>
      <trkpt lat="48.69249" lon="2.09299">
        <ele>161</ele>
        <time>2021-01-17T09:42:53Z</time>
      </trkpt>
      <trkpt lat="48.69255" lon="2.09287">
        <ele>161</ele>
        <time>2021-01-17T09:43:01Z</time>
      </trkpt>
      <trkpt lat="48.69259" lon="2.09272">
        <ele>161</ele>
        <time>2021-01-17T09:43:09Z</time>
      </trkpt>
      <trkpt lat="48.69264" lon="2.09258">
        <ele>161</ele>
        <time>2021-01-17T09:43:17Z</time>
      </trkpt>
      <trkpt lat="48.69282" lon="2.09192">
        <ele>160</ele>
        <time>2021-01-17T09:43:51Z</time>
      </trkpt>
      <trkpt lat="48.69289" lon="2.09126">
        <ele>160</ele>
        <time>2021-01-17T09:44:25Z</time>
      </trkpt>
      <trkpt lat="48.6929" lon="2.09119">
        <ele>160</ele>
        <time>2021-01-17T09:44:29Z</time>
      </trkpt>
      <trkpt lat="48.6929" lon="2.09112">
        <ele>160</ele>
        <time>2021-01-17T09:44:33Z</time>
      </trkpt>
      <trkpt lat="48.6929" lon="2.09105">
        <ele>160</ele>
        <time>2021-01-17T09:44:37Z</time>
      </trkpt>
      <trkpt lat="48.69292" lon="2.09098">
        <ele>160</ele>
        <time>2021-01-17T09:44:41Z</time>
      </trkpt>
      <trkpt lat="48.69294" lon="2.09091">
        <ele>160</ele>
        <time>2021-01-17T09:44:45Z</time>
      </trkpt>
      <trkpt lat="48.69296" lon="2.09084">
        <ele>160</ele>
        <time>2021-01-17T09:44:49Z</time>
      </trkpt>
      <trkpt lat="48.69305" lon="2.09032">
        <ele>160</ele>
        <time>2021-01-17T09:45:19Z</time>
      </trkpt>
      <trkpt lat="48.69305" lon="2.09024">
        <ele>160</ele>
        <time>2021-01-17T09:45:23Z</time>
      </trkpt>
      <trkpt lat="48.69302" lon="2.09018">
        <ele>160</ele>
        <time>2021-01-17T09:45:27Z</time>
      </trkpt>
      <trkpt lat="48.69296" lon="2.09017">
        <ele>160</ele>
        <time>2021-01-17T09:45:31Z</time>
      </trkpt>
      <trkpt lat="48.69253" lon="2.0902">
        <ele>161</ele>
        <time>2021-01-17T09:46:02Z</time>
      </trkpt>
      <trkpt lat="48.69208" lon="2.09025">
        <ele>162</ele>
        <time>2021-01-17T09:46:34Z</time>
      </trkpt>
      <trkpt lat="48.69204" lon="2.09025">
        <ele>162</ele>
        <time>2021-01-17T09:46:37Z</time>
      </trkpt>
      <trkpt lat="48.69162" lon="2.09028">
        <ele>162</ele>
        <time>2021-01-17T09:47:09Z</time>
      </trkpt>
      <trkpt lat="48.69121" lon="2.0903">
        <ele>163</ele>
        <time>2021-01-17T09:47:41Z</time>
      </trkpt>
      <trkpt lat="48.6908" lon="2.09032">
        <ele>164</ele>
        <time>2021-01-17T09:48:14Z</time>
      </trkpt>
      <trkpt lat="48.69038" lon="2.09035">
        <ele>165</ele>
        <time>2021-01-17T09:48:46Z</time>
      </trkpt>
      <trkpt lat="48.69033" lon="2.09035">
        <ele>165</ele>
        <time>2021-01-17T09:48:50Z</time>
      </trkpt>
      <trkpt lat="48.69027" lon="2.09037">
        <ele>165</ele>
        <time>2021-01-17T09:49:18Z</time>
      </trkpt>
      <trkpt lat="48.69023" lon="2.09038">
        <ele>165</ele>
        <time>2021-01-17T09:49:22Z</time>
      </trkpt>
      <trkpt lat="48.69018" lon="2.09038">
        <ele>165</ele>
        <time>2021-01-17T09:49:26Z</time>
      </trkpt>
      <trkpt lat="48.69014" lon="2.09039">
        <ele>165</ele>
        <time>2021-01-17T09:49:30Z</time>
      </trkpt>
      <trkpt lat="48.69009" lon="2.0904">
        <ele>166</ele>
        <time>2021-01-17T09:49:34Z</time>
      </trkpt>
      <trkpt lat="48.68968" lon="2.09043">
        <ele>167</ele>
        <time>2021-01-17T09:50:05Z</time>
      </trkpt>
      <trkpt lat="48.68933" lon="2.09044">
        <ele>168</ele>
        <time>2021-01-17T09:50:36Z</time>
      </trkpt>
      <trkpt lat="48.68928" lon="2.09045">
        <ele>168</ele>
        <time>2021-01-17T09:50:41Z</time>
      </trkpt>
      <trkpt lat="48.68923" lon="2.09045">
        <ele>168</ele>
        <time>2021-01-17T09:50:46Z</time>
      </trkpt>
      <trkpt lat="48.68918" lon="2.09045">
        <ele>168</ele>
        <time>2021-01-17T09:50:50Z</time>
      </trkpt>
      <trkpt lat="48.68875" lon="2.09046">
        <ele>169</ele>
        <time>2021-01-17T09:51:21Z</time>
      </trkpt>
      <trkpt lat="48.68871" lon="2.09048">
        <ele>169</ele>
        <time>2021-01-17T09:51:25Z</time>
      </trkpt>
      <trkpt lat="48.68829" lon="2.09053">
        <ele>169</ele>
        <time>2021-01-17T09:51:56Z</time>
      </trkpt>
      <trkpt lat="48.68824" lon="2.09053">
        <ele>169</ele>
        <time>2021-01-17T09:52:00Z</time>
      </trkpt>
      <trkpt lat="48.68787" lon="2.09058">
        <ele>169</ele>
        <time>2021-01-17T09:52:28Z</time>
      </trkpt>
      <trkpt lat="48.68777" lon="2.09064">
        <ele>169</ele>
        <time>2021-01-17T09:52:36Z</time>
      </trkpt>
      <trkpt lat="48.68772" lon="2.09062">
        <ele>169</ele>
        <time>2021-01-17T09:52:40Z</time>
      </trkpt>
      <trkpt lat="48.68766" lon="2.09059">
        <ele>169</ele>
        <time>2021-01-17T09:52:47Z</time>
      </trkpt>
      <trkpt lat="48.68757" lon="2.09046">
        <ele>169</ele>
        <time>2021-01-17T09:52:59Z</time>
      </trkpt>
      <trkpt lat="48.68752" lon="2.09043">
        <ele>169</ele>
        <time>2021-01-17T09:53:03Z</time>
      </trkpt>
      <trkpt lat="48.68745" lon="2.09031">
        <ele>168</ele>
        <time>2021-01-17T09:53:11Z</time>
      </trkpt>
      <trkpt lat="48.68735" lon="2.09013">
        <ele>169</ele>
        <time>2021-01-17T09:53:23Z</time>
      </trkpt>
      <trkpt lat="48.68732" lon="2.09006">
        <ele>169</ele>
        <time>2021-01-17T09:53:27Z</time>
      </trkpt>
      <trkpt lat="48.68724" lon="2.08985">
        <ele>169</ele>
        <time>2021-01-17T09:53:41Z</time>
      </trkpt>
      <trkpt lat="48.68721" lon="2.08977">
        <ele>169</ele>
        <time>2021-01-17T09:53:46Z</time>
      </trkpt>
      <trkpt lat="48.68701" lon="2.08926">
        <ele>170</ele>
        <time>2021-01-17T09:54:19Z</time>
      </trkpt>
      <trkpt lat="48.68689" lon="2.08894">
        <ele>171</ele>
        <time>2021-01-17T09:54:40Z</time>
      </trkpt>
      <trkpt lat="48.68686" lon="2.08889">
        <ele>171</ele>
        <time>2021-01-17T09:54:45Z</time>
      </trkpt>
      <trkpt lat="48.68669" lon="2.08867">
        <ele>171</ele>
        <time>2021-01-17T09:55:11Z</time>
      </trkpt>
      <trkpt lat="48.68666" lon="2.08862">
        <ele>171</ele>
        <time>2021-01-17T09:55:15Z</time>
      </trkpt>
      <trkpt lat="48.68659" lon="2.0885">
        <ele>171</ele>
        <time>2021-01-17T09:55:25Z</time>
      </trkpt>
      <trkpt lat="48.68649" lon="2.08844">
        <ele>171</ele>
        <time>2021-01-17T09:55:34Z</time>
      </trkpt>
      <trkpt lat="48.68646" lon="2.08839">
        <ele>171</ele>
        <time>2021-01-17T09:55:38Z</time>
      </trkpt>
      <trkpt lat="48.68623" lon="2.08824">
        <ele>171</ele>
        <time>2021-01-17T09:56:00Z</time>
      </trkpt>
      <trkpt lat="48.68607" lon="2.08804">
        <ele>171</ele>
        <time>2021-01-17T09:56:19Z</time>
      </trkpt>
      <trkpt lat="48.68601" lon="2.08791">
        <ele>172</ele>
        <time>2021-01-17T09:56:29Z</time>
      </trkpt>
      <trkpt lat="48.68597" lon="2.08787">
        <ele>172</ele>
        <time>2021-01-17T09:56:34Z</time>
      </trkpt>
      <trkpt lat="48.6859" lon="2.08774">
        <ele>172</ele>
        <time>2021-01-17T09:56:43Z</time>
      </trkpt>
      <trkpt lat="48.68588" lon="2.08768">
        <ele>172</ele>
        <time>2021-01-17T09:56:47Z</time>
      </trkpt>
      <trkpt lat="48.6858" lon="2.08754">
        <ele>172</ele>
        <time>2021-01-17T09:56:58Z</time>
      </trkpt>
      <trkpt lat="48.68567" lon="2.08705">
        <ele>173</ele>
        <time>2021-01-17T09:57:29Z</time>
      </trkpt>
      <trkpt lat="48.68565" lon="2.08698">
        <ele>173</ele>
        <time>2021-01-17T09:57:33Z</time>
      </trkpt>
      <trkpt lat="48.68561" lon="2.08685">
        <ele>173</ele>
        <time>2021-01-17T09:57:42Z</time>
      </trkpt>
      <trkpt lat="48.68557" lon="2.08671">
        <ele>173</ele>
        <time>2021-01-17T09:57:52Z</time>
      </trkpt>
      <trkpt lat="48.68545" lon="2.08636">
        <ele>173</ele>
        <time>2021-01-17T09:58:23Z</time>
      </trkpt>
      <trkpt lat="48.68544" lon="2.08629">
        <ele>173</ele>
        <time>2021-01-17T09:58:27Z</time>
      </trkpt>
      <trkpt lat="48.68542" lon="2.08622">
        <ele>173</ele>
        <time>2021-01-17T09:58:31Z</time>
      </trkpt>
      <trkpt lat="48.68524" lon="2.08571">
        <ele>173</ele>
        <time>2021-01-17T09:59:03Z</time>
      </trkpt>
      <trkpt lat="48.68521" lon="2.08565">
        <ele>173</ele>
        <time>2021-01-17T09:59:07Z</time>
      </trkpt>
      <trkpt lat="48.68519" lon="2.08559">
        <ele>173</ele>
        <time>2021-01-17T09:59:11Z</time>
      </trkpt>
      <trkpt lat="48.68513" lon="2.08546">
        <ele>173</ele>
        <time>2021-01-17T09:59:21Z</time>
      </trkpt>
      <trkpt lat="48.6851" lon="2.08541">
        <ele>173</ele>
        <time>2021-01-17T09:59:25Z</time>
      </trkpt>
      <trkpt lat="48.68507" lon="2.08536">
        <ele>173</ele>
        <time>2021-01-17T09:59:29Z</time>
      </trkpt>
      <trkpt lat="48.68504" lon="2.0853">
        <ele>173</ele>
        <time>2021-01-17T09:59:33Z</time>
      </trkpt>
      <trkpt lat="48.68501" lon="2.08524">
        <ele>173</ele>
        <time>2021-01-17T09:59:37Z</time>
      </trkpt>
      <trkpt lat="48.68493" lon="2.08512">
        <ele>173</ele>
        <time>2021-01-17T09:59:45Z</time>
      </trkpt>
      <trkpt lat="48.6847" lon="2.08463">
        <ele>173</ele>
        <time>2021-01-17T10:00:17Z</time>
      </trkpt>
      <trkpt lat="48.68455" lon="2.08432">
        <ele>172</ele>
        <time>2021-01-17T10:00:36Z</time>
      </trkpt>
      <trkpt lat="48.68433" lon="2.0838">
        <ele>172</ele>
        <time>2021-01-17T10:01:07Z</time>
      </trkpt>
      <trkpt lat="48.6843" lon="2.08374">
        <ele>172</ele>
        <time>2021-01-17T10:01:11Z</time>
      </trkpt>
      <trkpt lat="48.68427" lon="2.08367">
        <ele>172</ele>
        <time>2021-01-17T10:01:15Z</time>
      </trkpt>
      <trkpt lat="48.68423" lon="2.08359">
        <ele>172</ele>
        <time>2021-01-17T10:01:20Z</time>
      </trkpt>
      <trkpt lat="48.6842" lon="2.08352">
        <ele>172</ele>
        <time>2021-01-17T10:01:24Z</time>
      </trkpt>
      <trkpt lat="48.68416" lon="2.08347">
        <ele>172</ele>
        <time>2021-01-17T10:01:28Z</time>
      </trkpt>
      <trkpt lat="48.68413" lon="2.08341">
        <ele>172</ele>
        <time>2021-01-17T10:01:32Z</time>
      </trkpt>
      <trkpt lat="48.68407" lon="2.08328">
        <ele>172</ele>
        <time>2021-01-17T10:01:42Z</time>
      </trkpt>
      <trkpt lat="48.68404" lon="2.08323">
        <ele>171</ele>
        <time>2021-01-17T10:01:46Z</time>
      </trkpt>
      <trkpt lat="48.68403" lon="2.08316">
        <ele>171</ele>
        <time>2021-01-17T10:01:50Z</time>
      </trkpt>
      <trkpt lat="48.68388" lon="2.08295">
        <ele>170</ele>
        <time>2021-01-17T10:02:07Z</time>
      </trkpt>
      <trkpt lat="48.68385" lon="2.08283">
        <ele>170</ele>
        <time>2021-01-17T10:02:17Z</time>
      </trkpt>
      <trkpt lat="48.68383" lon="2.08277">
        <ele>170</ele>
        <time>2021-01-17T10:02:21Z</time>
      </trkpt>
      <trkpt lat="48.68375" lon="2.08266">
        <ele>169</ele>
        <time>2021-01-17T10:02:29Z</time>
      </trkpt>
      <trkpt lat="48.68373" lon="2.0826">
        <ele>169</ele>
        <time>2021-01-17T10:02:33Z</time>
      </trkpt>
      <trkpt lat="48.6837" lon="2.08253">
        <ele>169</ele>
        <time>2021-01-17T10:02:37Z</time>
      </trkpt>
      <trkpt lat="48.68359" lon="2.08245">
        <ele>168</ele>
        <time>2021-01-17T10:02:49Z</time>
      </trkpt>
      <trkpt lat="48.68335" lon="2.08211">
        <ele>168</ele>
        <time>2021-01-17T10:03:16Z</time>
      </trkpt>
      <trkpt lat="48.68306" lon="2.08154">
        <ele>165</ele>
        <time>2021-01-17T10:03:48Z</time>
      </trkpt>
      <trkpt lat="48.68301" lon="2.0814">
        <ele>164</ele>
        <time>2021-01-17T10:03:55Z</time>
      </trkpt>
      <trkpt lat="48.68291" lon="2.08083">
        <ele>164</ele>
        <time>2021-01-17T10:04:26Z</time>
      </trkpt>
      <trkpt lat="48.68292" lon="2.08068">
        <ele>163</ele>
        <time>2021-01-17T10:04:35Z</time>
      </trkpt>
      <trkpt lat="48.68288" lon="2.08063">
        <ele>163</ele>
        <time>2021-01-17T10:04:39Z</time>
      </trkpt>
      <trkpt lat="48.68284" lon="2.08042">
        <ele>162</ele>
        <time>2021-01-17T10:04:51Z</time>
      </trkpt>
      <trkpt lat="48.68284" lon="2.08034">
        <ele>162</ele>
        <time>2021-01-17T10:04:55Z</time>
      </trkpt>
      <trkpt lat="48.68282" lon="2.08028">
        <ele>162</ele>
        <time>2021-01-17T10:04:58Z</time>
      </trkpt>
      <trkpt lat="48.68281" lon="2.08012">
        <ele>162</ele>
        <time>2021-01-17T10:05:04Z</time>
      </trkpt>
      <trkpt lat="48.6827" lon="2.07977">
        <ele>162</ele>
        <time>2021-01-17T10:05:21Z</time>
      </trkpt>
      <trkpt lat="48.6827" lon="2.0797">
        <ele>161</ele>
        <time>2021-01-17T10:05:26Z</time>
      </trkpt>
      <trkpt lat="48.68267" lon="2.07955">
        <ele>161</ele>
        <time>2021-01-17T10:05:35Z</time>
      </trkpt>
      <trkpt lat="48.68264" lon="2.07948">
        <ele>161</ele>
        <time>2021-01-17T10:05:43Z</time>
      </trkpt>
      <trkpt lat="48.68266" lon="2.07939">
        <ele>162</ele>
        <time>2021-01-17T10:05:55Z</time>
      </trkpt>
      <trkpt lat="48.68263" lon="2.07928">
        <ele>161</ele>
        <time>2021-01-17T10:06:07Z</time>
      </trkpt>
      <trkpt lat="48.68263" lon="2.0792">
        <ele>161</ele>
        <time>2021-01-17T10:06:12Z</time>
      </trkpt>
      <trkpt lat="48.68261" lon="2.07914">
        <ele>161</ele>
        <time>2021-01-17T10:06:15Z</time>
      </trkpt>
      <trkpt lat="48.68262" lon="2.07899">
        <ele>160</ele>
        <time>2021-01-17T10:06:22Z</time>
      </trkpt>
      <trkpt lat="48.68261" lon="2.07892">
        <ele>160</ele>
        <time>2021-01-17T10:06:25Z</time>
      </trkpt>
      <trkpt lat="48.68256" lon="2.07869">
        <ele>159</ele>
        <time>2021-01-17T10:06:39Z</time>
      </trkpt>
      <trkpt lat="48.68256" lon="2.0786">
        <ele>159</ele>
        <time>2021-01-17T10:06:43Z</time>
      </trkpt>
      <trkpt lat="48.68253" lon="2.07844">
        <ele>159</ele>
        <time>2021-01-17T10:06:51Z</time>
      </trkpt>
      <trkpt lat="48.6825" lon="2.07838">
        <ele>158</ele>
        <time>2021-01-17T10:06:55Z</time>
      </trkpt>
      <trkpt lat="48.68248" lon="2.0783">
        <ele>158</ele>
        <time>2021-01-17T10:07:00Z</time>
      </trkpt>
      <trkpt lat="48.68245" lon="2.07823">
        <ele>157</ele>
        <time>2021-01-17T10:07:04Z</time>
      </trkpt>
      <trkpt lat="48.68218" lon="2.07782">
        <ele>156</ele>
        <time>2021-01-17T10:07:34Z</time>
      </trkpt>
      <trkpt lat="48.68214" lon="2.07777">
        <ele>156</ele>
        <time>2021-01-17T10:07:38Z</time>
      </trkpt>
      <trkpt lat="48.68219" lon="2.07772">
        <ele>157</ele>
        <time>2021-01-17T10:07:54Z</time>
      </trkpt>
      <trkpt lat="48.68214" lon="2.07767">
        <ele>158</ele>
        <time>2021-01-17T10:08:17Z</time>
      </trkpt>
      <trkpt lat="48.6821" lon="2.07763">
        <ele>157</ele>
        <time>2021-01-17T10:08:21Z</time>
      </trkpt>
      <trkpt lat="48.68204" lon="2.07745">
        <ele>157</ele>
        <time>2021-01-17T10:08:38Z</time>
      </trkpt>
      <trkpt lat="48.682" lon="2.07737">
        <ele>157</ele>
        <time>2021-01-17T10:08:54Z</time>
      </trkpt>
      <trkpt lat="48.68197" lon="2.0773">
        <ele>157</ele>
        <time>2021-01-17T10:08:57Z</time>
      </trkpt>
      <trkpt lat="48.68195" lon="2.07724">
        <ele>156</ele>
        <time>2021-01-17T10:09:01Z</time>
      </trkpt>
      <trkpt lat="48.68193" lon="2.07716">
        <ele>156</ele>
        <time>2021-01-17T10:09:06Z</time>
      </trkpt>
      <trkpt lat="48.6819" lon="2.0771">
        <ele>157</ele>
        <time>2021-01-17T10:09:10Z</time>
      </trkpt>
      <trkpt lat="48.68174" lon="2.07669">
        <ele>156</ele>
        <time>2021-01-17T10:09:34Z</time>
      </trkpt>
      <trkpt lat="48.68168" lon="2.07658">
        <ele>156</ele>
        <time>2021-01-17T10:09:45Z</time>
      </trkpt>
      <trkpt lat="48.68166" lon="2.0765">
        <ele>156</ele>
        <time>2021-01-17T10:09:49Z</time>
      </trkpt>
      <trkpt lat="48.68163" lon="2.07635">
        <ele>156</ele>
        <time>2021-01-17T10:09:57Z</time>
      </trkpt>
      <trkpt lat="48.68143" lon="2.07581">
        <ele>156</ele>
        <time>2021-01-17T10:10:29Z</time>
      </trkpt>
      <trkpt lat="48.68133" lon="2.0756">
        <ele>156</ele>
        <time>2021-01-17T10:10:41Z</time>
      </trkpt>
      <trkpt lat="48.6813" lon="2.07556">
        <ele>156</ele>
        <time>2021-01-17T10:10:45Z</time>
      </trkpt>
      <trkpt lat="48.6813" lon="2.07546">
        <ele>157</ele>
        <time>2021-01-17T10:10:51Z</time>
      </trkpt>
      <trkpt lat="48.68118" lon="2.07528">
        <ele>155</ele>
        <time>2021-01-17T10:11:03Z</time>
      </trkpt>
      <trkpt lat="48.68113" lon="2.07524">
        <ele>155</ele>
        <time>2021-01-17T10:11:07Z</time>
      </trkpt>
      <trkpt lat="48.68086" lon="2.07506">
        <ele>157</ele>
        <time>2021-01-17T10:11:31Z</time>
      </trkpt>
      <trkpt lat="48.68069" lon="2.07489">
        <ele>157</ele>
        <time>2021-01-17T10:11:47Z</time>
      </trkpt>
      <trkpt lat="48.68066" lon="2.07483">
        <ele>157</ele>
        <time>2021-01-17T10:11:51Z</time>
      </trkpt>
      <trkpt lat="48.68056" lon="2.07475">
        <ele>158</ele>
        <time>2021-01-17T10:11:59Z</time>
      </trkpt>
      <trkpt lat="48.68047" lon="2.07467">
        <ele>158</ele>
        <time>2021-01-17T10:12:07Z</time>
      </trkpt>
      <trkpt lat="48.68043" lon="2.07464">
        <ele>158</ele>
        <time>2021-01-17T10:12:11Z</time>
      </trkpt>
      <trkpt lat="48.68039" lon="2.07458">
        <ele>158</ele>
        <time>2021-01-17T10:12:15Z</time>
      </trkpt>
      <trkpt lat="48.67996" lon="2.07431">
        <ele>159</ele>
        <time>2021-01-17T10:12:49Z</time>
      </trkpt>
      <trkpt lat="48.67959" lon="2.07403">
        <ele>160</ele>
        <time>2021-01-17T10:13:21Z</time>
      </trkpt>
      <trkpt lat="48.6794" lon="2.07391">
        <ele>160</ele>
        <time>2021-01-17T10:13:37Z</time>
      </trkpt>
      <trkpt lat="48.67946" lon="2.07394">
        <ele>161</ele>
        <time>2021-01-17T10:14:48Z</time>
      </trkpt>
      <trkpt lat="48.67955" lon="2.07403">
        <ele>161</ele>
        <time>2021-01-17T10:14:55Z</time>
      </trkpt>
      <trkpt lat="48.67958" lon="2.07409">
        <ele>161</ele>
        <time>2021-01-17T10:14:59Z</time>
      </trkpt>
      <trkpt lat="48.67963" lon="2.07411">
        <ele>160</ele>
        <time>2021-01-17T10:15:03Z</time>
      </trkpt>
      <trkpt lat="48.67968" lon="2.07413">
        <ele>160</ele>
        <time>2021-01-17T10:15:07Z</time>
      </trkpt>
      <trkpt lat="48.67975" lon="2.07417">
        <ele>161</ele>
        <time>2021-01-17T10:16:46Z</time>
      </trkpt>
      <trkpt lat="48.6799" lon="2.07424">
        <ele>160</ele>
        <time>2021-01-17T10:16:57Z</time>
      </trkpt>
      <trkpt lat="48.67992" lon="2.07418">
        <ele>160</ele>
        <time>2021-01-17T10:17:11Z</time>
      </trkpt>
      <trkpt lat="48.67988" lon="2.07409">
        <ele>159</ele>
        <time>2021-01-17T10:17:22Z</time>
      </trkpt>
      <trkpt lat="48.67977" lon="2.07401">
        <ele>160</ele>
        <time>2021-01-17T10:17:36Z</time>
      </trkpt>
      <trkpt lat="48.67976" lon="2.07383">
        <ele>161</ele>
        <time>2021-01-17T10:17:51Z</time>
      </trkpt>
      <trkpt lat="48.67979" lon="2.07372">
        <ele>160</ele>
        <time>2021-01-17T10:18:00Z</time>
      </trkpt>
      <trkpt lat="48.67988" lon="2.07337">
        <ele>160</ele>
        <time>2021-01-17T10:18:23Z</time>
      </trkpt>
      <trkpt lat="48.67994" lon="2.07323">
        <ele>160</ele>
        <time>2021-01-17T10:18:36Z</time>
      </trkpt>
      <trkpt lat="48.67999" lon="2.07302">
        <ele>161</ele>
        <time>2021-01-17T10:18:53Z</time>
      </trkpt>
      <trkpt lat="48.68006" lon="2.07288">
        <ele>160</ele>
        <time>2021-01-17T10:19:07Z</time>
      </trkpt>
      <trkpt lat="48.68009" lon="2.07276">
        <ele>160</ele>
        <time>2021-01-17T10:19:18Z</time>
      </trkpt>
      <trkpt lat="48.68011" lon="2.0727">
        <ele>160</ele>
        <time>2021-01-17T10:19:23Z</time>
      </trkpt>
      <trkpt lat="48.68015" lon="2.07264">
        <ele>160</ele>
        <time>2021-01-17T10:19:31Z</time>
      </trkpt>
      <trkpt lat="48.68018" lon="2.07257">
        <ele>159</ele>
        <time>2021-01-17T10:19:37Z</time>
      </trkpt>
      <trkpt lat="48.68022" lon="2.0724">
        <ele>159</ele>
        <time>2021-01-17T10:19:55Z</time>
      </trkpt>
      <trkpt lat="48.68024" lon="2.07234">
        <ele>159</ele>
        <time>2021-01-17T10:20:00Z</time>
      </trkpt>
      <trkpt lat="48.68027" lon="2.07224">
        <ele>158</ele>
        <time>2021-01-17T10:20:09Z</time>
      </trkpt>
      <trkpt lat="48.68031" lon="2.07213">
        <ele>158</ele>
        <time>2021-01-17T10:20:21Z</time>
      </trkpt>
      <trkpt lat="48.68033" lon="2.07202">
        <ele>157</ele>
        <time>2021-01-17T10:20:33Z</time>
      </trkpt>
      <trkpt lat="48.68036" lon="2.07197">
        <ele>157</ele>
        <time>2021-01-17T10:20:51Z</time>
      </trkpt>
      <trkpt lat="48.68039" lon="2.07188">
        <ele>157</ele>
        <time>2021-01-17T10:21:08Z</time>
      </trkpt>
      <trkpt lat="48.68037" lon="2.0718">
        <ele>156</ele>
        <time>2021-01-17T10:21:23Z</time>
      </trkpt>
      <trkpt lat="48.68036" lon="2.07172">
        <ele>156</ele>
        <time>2021-01-17T10:21:48Z</time>
      </trkpt>
      <trkpt lat="48.68036" lon="2.07165">
        <ele>155</ele>
        <time>2021-01-17T10:22:00Z</time>
      </trkpt>
      <trkpt lat="48.68033" lon="2.07159">
        <ele>153</ele>
        <time>2021-01-17T10:22:12Z</time>
      </trkpt>
      <trkpt lat="48.68043" lon="2.07151">
        <ele>151</ele>
        <time>2021-01-17T10:22:29Z</time>
      </trkpt>
      <trkpt lat="48.68055" lon="2.07127">
        <ele>146</ele>
        <time>2021-01-17T10:22:54Z</time>
      </trkpt>
      <trkpt lat="48.68054" lon="2.07116">
        <ele>145</ele>
        <time>2021-01-17T10:23:02Z</time>
      </trkpt>
      <trkpt lat="48.68056" lon="2.07108">
        <ele>143</ele>
        <time>2021-01-17T10:23:10Z</time>
      </trkpt>
      <trkpt lat="48.68069" lon="2.07083">
        <ele>140</ele>
        <time>2021-01-17T10:23:43Z</time>
      </trkpt>
      <trkpt lat="48.68076" lon="2.07077">
        <ele>137</ele>
        <time>2021-01-17T10:23:55Z</time>
      </trkpt>
      <trkpt lat="48.68077" lon="2.07063">
        <ele>134</ele>
        <time>2021-01-17T10:24:25Z</time>
      </trkpt>
      <trkpt lat="48.68092" lon="2.07036">
        <ele>128</ele>
        <time>2021-01-17T10:25:06Z</time>
      </trkpt>
      <trkpt lat="48.68099" lon="2.07025">
        <ele>126</ele>
        <time>2021-01-17T10:25:16Z</time>
      </trkpt>
      <trkpt lat="48.68116" lon="2.07011">
        <ele>121</ele>
        <time>2021-01-17T10:25:32Z</time>
      </trkpt>
      <trkpt lat="48.6812" lon="2.07002">
        <ele>120</ele>
        <time>2021-01-17T10:25:38Z</time>
      </trkpt>
      <trkpt lat="48.68121" lon="2.06996">
        <ele>121</ele>
        <time>2021-01-17T10:25:47Z</time>
      </trkpt>
      <trkpt lat="48.68134" lon="2.0697">
        <ele>118</ele>
        <time>2021-01-17T10:26:06Z</time>
      </trkpt>
      <trkpt lat="48.68135" lon="2.06963">
        <ele>117</ele>
        <time>2021-01-17T10:26:10Z</time>
      </trkpt>
      <trkpt lat="48.68136" lon="2.06955">
        <ele>117</ele>
        <time>2021-01-17T10:26:14Z</time>
      </trkpt>
      <trkpt lat="48.68141" lon="2.06946">
        <ele>116</ele>
        <time>2021-01-17T10:26:20Z</time>
      </trkpt>
      <trkpt lat="48.68144" lon="2.0693">
        <ele>114</ele>
        <time>2021-01-17T10:26:31Z</time>
      </trkpt>
      <trkpt lat="48.68159" lon="2.06906">
        <ele>112</ele>
        <time>2021-01-17T10:26:50Z</time>
      </trkpt>
      <trkpt lat="48.6816" lon="2.06898">
        <ele>111</ele>
        <time>2021-01-17T10:26:53Z</time>
      </trkpt>
      <trkpt lat="48.68169" lon="2.06893">
        <ele>110</ele>
        <time>2021-01-17T10:27:51Z</time>
      </trkpt>
      <trkpt lat="48.68178" lon="2.06888">
        <ele>110</ele>
        <time>2021-01-17T10:28:00Z</time>
      </trkpt>
      <trkpt lat="48.68193" lon="2.06871">
        <ele>108</ele>
        <time>2021-01-17T10:28:16Z</time>
      </trkpt>
      <trkpt lat="48.68207" lon="2.06863">
        <ele>109</ele>
        <time>2021-01-17T10:28:32Z</time>
      </trkpt>
      <trkpt lat="48.68235" lon="2.06852">
        <ele>108</ele>
        <time>2021-01-17T10:28:53Z</time>
      </trkpt>
      <trkpt lat="48.68251" lon="2.06853">
        <ele>107</ele>
        <time>2021-01-17T10:29:09Z</time>
      </trkpt>
      <trkpt lat="48.68283" lon="2.06824">
        <ele>107</ele>
        <time>2021-01-17T10:29:36Z</time>
      </trkpt>
      <trkpt lat="48.68287" lon="2.06818">
        <ele>107</ele>
        <time>2021-01-17T10:29:40Z</time>
      </trkpt>
      <trkpt lat="48.68296" lon="2.06811">
        <ele>107</ele>
        <time>2021-01-17T10:29:47Z</time>
      </trkpt>
      <trkpt lat="48.683" lon="2.06805">
        <ele>107</ele>
        <time>2021-01-17T10:29:51Z</time>
      </trkpt>
      <trkpt lat="48.68302" lon="2.06799">
        <ele>107</ele>
        <time>2021-01-17T10:29:54Z</time>
      </trkpt>
      <trkpt lat="48.68297" lon="2.06791">
        <ele>106</ele>
        <time>2021-01-17T10:30:05Z</time>
      </trkpt>
      <trkpt lat="48.68291" lon="2.06789">
        <ele>106</ele>
        <time>2021-01-17T10:30:09Z</time>
      </trkpt>
      <trkpt lat="48.68275" lon="2.06771">
        <ele>106</ele>
        <time>2021-01-17T10:30:23Z</time>
      </trkpt>
      <trkpt lat="48.68257" lon="2.06741">
        <ele>107</ele>
        <time>2021-01-17T10:30:44Z</time>
      </trkpt>
      <trkpt lat="48.68255" lon="2.06734">
        <ele>106</ele>
        <time>2021-01-17T10:30:48Z</time>
      </trkpt>
      <trkpt lat="48.68245" lon="2.0669">
        <ele>108</ele>
        <time>2021-01-17T10:31:13Z</time>
      </trkpt>
      <trkpt lat="48.68243" lon="2.06674">
        <ele>109</ele>
        <time>2021-01-17T10:31:21Z</time>
      </trkpt>
      <trkpt lat="48.68243" lon="2.06667">
        <ele>109</ele>
        <time>2021-01-17T10:31:25Z</time>
      </trkpt>
      <trkpt lat="48.68239" lon="2.06644">
        <ele>110</ele>
        <time>2021-01-17T10:31:38Z</time>
      </trkpt>
      <trkpt lat="48.68235" lon="2.06637">
        <ele>111</ele>
        <time>2021-01-17T10:31:42Z</time>
      </trkpt>
      <trkpt lat="48.68234" lon="2.06627">
        <ele>111</ele>
        <time>2021-01-17T10:31:57Z</time>
      </trkpt>
      <trkpt lat="48.6823" lon="2.06613">
        <ele>112</ele>
        <time>2021-01-17T10:32:06Z</time>
      </trkpt>
      <trkpt lat="48.68227" lon="2.06599">
        <ele>113</ele>
        <time>2021-01-17T10:32:15Z</time>
      </trkpt>
      <trkpt lat="48.68225" lon="2.0659">
        <ele>114</ele>
        <time>2021-01-17T10:32:22Z</time>
      </trkpt>
      <trkpt lat="48.68225" lon="2.06583">
        <ele>114</ele>
        <time>2021-01-17T10:32:27Z</time>
      </trkpt>
      <trkpt lat="48.68223" lon="2.06565">
        <ele>115</ele>
        <time>2021-01-17T10:32:38Z</time>
      </trkpt>
      <trkpt lat="48.68224" lon="2.06557">
        <ele>116</ele>
        <time>2021-01-17T10:32:43Z</time>
      </trkpt>
      <trkpt lat="48.68228" lon="2.06552">
        <ele>117</ele>
        <time>2021-01-17T10:32:47Z</time>
      </trkpt>
      <trkpt lat="48.68233" lon="2.06549">
        <ele>117</ele>
        <time>2021-01-17T10:32:51Z</time>
      </trkpt>
      <trkpt lat="48.68241" lon="2.0654">
        <ele>117</ele>
        <time>2021-01-17T10:32:59Z</time>
      </trkpt>
      <trkpt lat="48.68248" lon="2.06527">
        <ele>118</ele>
        <time>2021-01-17T10:33:07Z</time>
      </trkpt>
      <trkpt lat="48.68255" lon="2.06515">
        <ele>118</ele>
        <time>2021-01-17T10:33:16Z</time>
      </trkpt>
      <trkpt lat="48.68261" lon="2.06503">
        <ele>119</ele>
        <time>2021-01-17T10:33:24Z</time>
      </trkpt>
      <trkpt lat="48.68265" lon="2.06498">
        <ele>119</ele>
        <time>2021-01-17T10:33:28Z</time>
      </trkpt>
      <trkpt lat="48.68292" lon="2.06454">
        <ele>115</ele>
        <time>2021-01-17T10:34:00Z</time>
      </trkpt>
      <trkpt lat="48.68298" lon="2.06444">
        <ele>114</ele>
        <time>2021-01-17T10:34:08Z</time>
      </trkpt>
      <trkpt lat="48.68309" lon="2.06429">
        <ele>112</ele>
        <time>2021-01-17T10:34:20Z</time>
      </trkpt>
      <trkpt lat="48.68325" lon="2.06401">
        <ele>109</ele>
        <time>2021-01-17T10:34:40Z</time>
      </trkpt>
      <trkpt lat="48.68329" lon="2.06397">
        <ele>109</ele>
        <time>2021-01-17T10:34:44Z</time>
      </trkpt>
      <trkpt lat="48.68332" lon="2.06391">
        <ele>108</ele>
        <time>2021-01-17T10:34:48Z</time>
      </trkpt>
      <trkpt lat="48.68338" lon="2.06378">
        <ele>108</ele>
        <time>2021-01-17T10:34:56Z</time>
      </trkpt>
      <trkpt lat="48.68342" lon="2.06356">
        <ele>107</ele>
        <time>2021-01-17T10:35:08Z</time>
      </trkpt>
      <trkpt lat="48.68342" lon="2.06348">
        <ele>107</ele>
        <time>2021-01-17T10:35:13Z</time>
      </trkpt>
      <trkpt lat="48.68336" lon="2.06332">
        <ele>107</ele>
        <time>2021-01-17T10:35:27Z</time>
      </trkpt>
      <trkpt lat="48.68331" lon="2.06286">
        <ele>108</ele>
        <time>2021-01-17T10:35:51Z</time>
      </trkpt>
      <trkpt lat="48.68332" lon="2.06278">
        <ele>107</ele>
        <time>2021-01-17T10:35:55Z</time>
      </trkpt>
      <trkpt lat="48.68335" lon="2.06271">
        <ele>107</ele>
        <time>2021-01-17T10:35:59Z</time>
      </trkpt>
      <trkpt lat="48.68344" lon="2.06266">
        <ele>107</ele>
        <time>2021-01-17T10:36:07Z</time>
      </trkpt>
      <trkpt lat="48.6835" lon="2.06265">
        <ele>107</ele>
        <time>2021-01-17T10:36:11Z</time>
      </trkpt>
      <trkpt lat="48.68359" lon="2.06257">
        <ele>106</ele>
        <time>2021-01-17T10:36:20Z</time>
      </trkpt>
      <trkpt lat="48.68391" lon="2.06235">
        <ele>106</ele>
        <time>2021-01-17T10:36:46Z</time>
      </trkpt>
      <trkpt lat="48.68396" lon="2.06234">
        <ele>105</ele>
        <time>2021-01-17T10:36:50Z</time>
      </trkpt>
      <trkpt lat="48.68439" lon="2.06246">
        <ele>109</ele>
        <time>2021-01-17T10:37:20Z</time>
      </trkpt>
      <trkpt lat="48.68445" lon="2.06258">
        <ele>110</ele>
        <time>2021-01-17T10:37:27Z</time>
      </trkpt>
      <trkpt lat="48.6845" lon="2.0627">
        <ele>111</ele>
        <time>2021-01-17T10:37:36Z</time>
      </trkpt>
      <trkpt lat="48.68461" lon="2.06281">
        <ele>113</ele>
        <time>2021-01-17T10:37:53Z</time>
      </trkpt>
      <trkpt lat="48.6847" lon="2.06282">
        <ele>115</ele>
        <time>2021-01-17T10:38:02Z</time>
      </trkpt>
      <trkpt lat="48.68481" lon="2.0629">
        <ele>116</ele>
        <time>2021-01-17T10:38:12Z</time>
      </trkpt>
      <trkpt lat="48.68489" lon="2.06287">
        <ele>117</ele>
        <time>2021-01-17T10:38:22Z</time>
      </trkpt>
      <trkpt lat="48.68504" lon="2.06301">
        <ele>117</ele>
        <time>2021-01-17T10:39:26Z</time>
      </trkpt>
      <trkpt lat="48.68514" lon="2.06302">
        <ele>116</ele>
        <time>2021-01-17T10:40:04Z</time>
      </trkpt>
      <trkpt lat="48.68507" lon="2.06306">
        <ele>116</ele>
        <time>2021-01-17T10:41:09Z</time>
      </trkpt>
      <trkpt lat="48.68496" lon="2.06292">
        <ele>118</ele>
        <time>2021-01-17T10:41:24Z</time>
      </trkpt>
      <trkpt lat="48.68494" lon="2.06285">
        <ele>119</ele>
        <time>2021-01-17T10:41:56Z</time>
      </trkpt>
      <trkpt lat="48.68487" lon="2.06277">
        <ele>119</ele>
        <time>2021-01-17T10:42:09Z</time>
      </trkpt>
      <trkpt lat="48.68482" lon="2.06273">
        <ele>119</ele>
        <time>2021-01-17T10:42:13Z</time>
      </trkpt>
      <trkpt lat="48.68477" lon="2.06261">
        <ele>119</ele>
        <time>2021-01-17T10:42:21Z</time>
      </trkpt>
      <trkpt lat="48.68474" lon="2.0625">
        <ele>120</ele>
        <time>2021-01-17T10:42:27Z</time>
      </trkpt>
      <trkpt lat="48.68469" lon="2.06224">
        <ele>121</ele>
        <time>2021-01-17T10:42:38Z</time>
      </trkpt>
      <trkpt lat="48.68465" lon="2.06219">
        <ele>121</ele>
        <time>2021-01-17T10:42:43Z</time>
      </trkpt>
      <trkpt lat="48.68458" lon="2.06198">
        <ele>122</ele>
        <time>2021-01-17T10:42:55Z</time>
      </trkpt>
      <trkpt lat="48.68442" lon="2.06173">
        <ele>124</ele>
        <time>2021-01-17T10:43:16Z</time>
      </trkpt>
      <trkpt lat="48.6844" lon="2.06166">
        <ele>124</ele>
        <time>2021-01-17T10:43:20Z</time>
      </trkpt>
      <trkpt lat="48.6843" lon="2.06157">
        <ele>125</ele>
        <time>2021-01-17T10:43:28Z</time>
      </trkpt>
      <trkpt lat="48.68429" lon="2.0615">
        <ele>125</ele>
        <time>2021-01-17T10:43:32Z</time>
      </trkpt>
      <trkpt lat="48.68417" lon="2.06136">
        <ele>127</ele>
        <time>2021-01-17T10:43:44Z</time>
      </trkpt>
      <trkpt lat="48.68394" lon="2.06102">
        <ele>128</ele>
        <time>2021-01-17T10:44:09Z</time>
      </trkpt>
      <trkpt lat="48.68391" lon="2.06095">
        <ele>128</ele>
        <time>2021-01-17T10:44:13Z</time>
      </trkpt>
      <trkpt lat="48.6839" lon="2.06086">
        <ele>128</ele>
        <time>2021-01-17T10:44:17Z</time>
      </trkpt>
      <trkpt lat="48.68391" lon="2.06078">
        <ele>129</ele>
        <time>2021-01-17T10:44:21Z</time>
      </trkpt>
      <trkpt lat="48.68393" lon="2.06071">
        <ele>129</ele>
        <time>2021-01-17T10:44:25Z</time>
      </trkpt>
      <trkpt lat="48.68397" lon="2.06066">
        <ele>129</ele>
        <time>2021-01-17T10:44:29Z</time>
      </trkpt>
      <trkpt lat="48.68403" lon="2.06063">
        <ele>129</ele>
        <time>2021-01-17T10:44:38Z</time>
      </trkpt>
      <trkpt lat="48.68408" lon="2.06067">
        <ele>129</ele>
        <time>2021-01-17T10:44:42Z</time>
      </trkpt>
      <trkpt lat="48.68414" lon="2.06077">
        <ele>129</ele>
        <time>2021-01-17T10:44:53Z</time>
      </trkpt>
      <trkpt lat="48.68419" lon="2.06081">
        <ele>129</ele>
        <time>2021-01-17T10:44:57Z</time>
      </trkpt>
      <trkpt lat="48.68423" lon="2.06086">
        <ele>129</ele>
        <time>2021-01-17T10:45:00Z</time>
      </trkpt>
      <trkpt lat="48.68456" lon="2.06126">
        <ele>128</ele>
        <time>2021-01-17T10:45:32Z</time>
      </trkpt>
      <trkpt lat="48.68469" lon="2.06138">
        <ele>128</ele>
        <time>2021-01-17T10:45:45Z</time>
      </trkpt>
      <trkpt lat="48.68466" lon="2.06139">
        <ele>129</ele>
        <time>2021-01-17T10:49:11Z</time>
      </trkpt>
      <trkpt lat="48.68473" lon="2.06151">
        <ele>129</ele>
        <time>2021-01-17T10:49:20Z</time>
      </trkpt>
      <trkpt lat="48.68477" lon="2.06158">
        <ele>130</ele>
        <time>2021-01-17T10:49:31Z</time>
      </trkpt>
      <trkpt lat="48.68468" lon="2.06152">
        <ele>130</ele>
        <time>2021-01-17T10:50:27Z</time>
      </trkpt>
      <trkpt lat="48.68468" lon="2.06152">
        <ele>131</ele>
        <time>2021-01-17T10:51:55Z</time>
      </trkpt>
      <trkpt lat="48.68469" lon="2.06132">
        <ele>132</ele>
        <time>2021-01-17T10:52:45Z</time>
      </trkpt>
      <trkpt lat="48.68469" lon="2.06128">
        <ele>132</ele>
        <time>2021-01-17T10:53:04Z</time>
      </trkpt>
      <trkpt lat="48.68481" lon="2.06139">
        <ele>132</ele>
        <time>2021-01-17T10:54:32Z</time>
      </trkpt>
      <trkpt lat="48.68526" lon="2.06169">
        <ele>132</ele>
        <time>2021-01-17T10:55:09Z</time>
      </trkpt>
      <trkpt lat="48.68545" lon="2.0618">
        <ele>131</ele>
        <time>2021-01-17T10:55:23Z</time>
      </trkpt>
      <trkpt lat="48.68553" lon="2.06187">
        <ele>131</ele>
        <time>2021-01-17T10:55:31Z</time>
      </trkpt>
      <trkpt lat="48.686" lon="2.06191">
        <ele>131</ele>
        <time>2021-01-17T10:56:10Z</time>
      </trkpt>
      <trkpt lat="48.68609" lon="2.06192">
        <ele>131</ele>
        <time>2021-01-17T10:56:17Z</time>
      </trkpt>
      <trkpt lat="48.68657" lon="2.06184">
        <ele>129</ele>
        <time>2021-01-17T10:56:53Z</time>
      </trkpt>
      <trkpt lat="48.68697" lon="2.06172">
        <ele>128</ele>
        <time>2021-01-17T10:57:26Z</time>
      </trkpt>
      <trkpt lat="48.68735" lon="2.06161">
        <ele>126</ele>
        <time>2021-01-17T10:57:59Z</time>
      </trkpt>
      <trkpt lat="48.68743" lon="2.06154">
        <ele>126</ele>
        <time>2021-01-17T10:58:09Z</time>
      </trkpt>
      <trkpt lat="48.68788" lon="2.06139">
        <ele>125</ele>
        <time>2021-01-17T10:58:51Z</time>
      </trkpt>
      <trkpt lat="48.68817" lon="2.06133">
        <ele>125</ele>
        <time>2021-01-17T10:59:11Z</time>
      </trkpt>
      <trkpt lat="48.68826" lon="2.06129">
        <ele>124</ele>
        <time>2021-01-17T10:59:19Z</time>
      </trkpt>
      <trkpt lat="48.68846" lon="2.06125">
        <ele>124</ele>
        <time>2021-01-17T10:59:31Z</time>
      </trkpt>
      <trkpt lat="48.68854" lon="2.06119">
        <ele>124</ele>
        <time>2021-01-17T10:59:39Z</time>
      </trkpt>
      <trkpt lat="48.68864" lon="2.06119">
        <ele>121</ele>
        <time>2021-01-17T10:59:55Z</time>
      </trkpt>
      <trkpt lat="48.68874" lon="2.06115">
        <ele>124</ele>
        <time>2021-01-17T11:00:02Z</time>
      </trkpt>
      <trkpt lat="48.68882" lon="2.0611">
        <ele>124</ele>
        <time>2021-01-17T11:00:11Z</time>
      </trkpt>
      <trkpt lat="48.68931" lon="2.061">
        <ele>123</ele>
        <time>2021-01-17T11:00:45Z</time>
      </trkpt>
      <trkpt lat="48.68963" lon="2.06107">
        <ele>122</ele>
        <time>2021-01-17T11:01:17Z</time>
      </trkpt>
      <trkpt lat="48.68984" lon="2.06103">
        <ele>121</ele>
        <time>2021-01-17T11:01:31Z</time>
      </trkpt>
      <trkpt lat="48.69002" lon="2.06102">
        <ele>121</ele>
        <time>2021-01-17T11:01:45Z</time>
      </trkpt>
      <trkpt lat="48.69023" lon="2.061">
        <ele>120</ele>
        <time>2021-01-17T11:02:05Z</time>
      </trkpt>
      <trkpt lat="48.6907" lon="2.06105">
        <ele>119</ele>
        <time>2021-01-17T11:02:35Z</time>
      </trkpt>
      <trkpt lat="48.69081" lon="2.06098">
        <ele>119</ele>
        <time>2021-01-17T11:02:44Z</time>
      </trkpt>
      <trkpt lat="48.691" lon="2.06093">
        <ele>119</ele>
        <time>2021-01-17T11:03:01Z</time>
      </trkpt>
      <trkpt lat="48.6911" lon="2.06095">
        <ele>118</ele>
        <time>2021-01-17T11:03:07Z</time>
      </trkpt>
      <trkpt lat="48.69129" lon="2.06089">
        <ele>118</ele>
        <time>2021-01-17T11:03:23Z</time>
      </trkpt>
      <trkpt lat="48.69138" lon="2.06091">
        <ele>118</ele>
        <time>2021-01-17T11:03:29Z</time>
      </trkpt>
      <trkpt lat="48.69167" lon="2.06085">
        <ele>117</ele>
        <time>2021-01-17T11:03:50Z</time>
      </trkpt>
      <trkpt lat="48.69175" lon="2.06078">
        <ele>117</ele>
        <time>2021-01-17T11:03:57Z</time>
      </trkpt>
      <trkpt lat="48.69184" lon="2.06075">
        <ele>116</ele>
        <time>2021-01-17T11:04:05Z</time>
      </trkpt>
      <trkpt lat="48.69199" lon="2.0606">
        <ele>116</ele>
        <time>2021-01-17T11:04:20Z</time>
      </trkpt>
      <trkpt lat="48.69229" lon="2.06049">
        <ele>115</ele>
        <time>2021-01-17T11:04:40Z</time>
      </trkpt>
      <trkpt lat="48.69246" lon="2.06038">
        <ele>115</ele>
        <time>2021-01-17T11:04:54Z</time>
      </trkpt>
      <trkpt lat="48.69273" lon="2.06028">
        <ele>114</ele>
        <time>2021-01-17T11:05:17Z</time>
      </trkpt>
      <trkpt lat="48.69281" lon="2.06022">
        <ele>114</ele>
        <time>2021-01-17T11:05:24Z</time>
      </trkpt>
      <trkpt lat="48.69291" lon="2.06019">
        <ele>114</ele>
        <time>2021-01-17T11:05:32Z</time>
      </trkpt>
      <trkpt lat="48.69299" lon="2.0601">
        <ele>114</ele>
        <time>2021-01-17T11:05:38Z</time>
      </trkpt>
      <trkpt lat="48.69305" lon="2.06001">
        <ele>114</ele>
        <time>2021-01-17T11:05:45Z</time>
      </trkpt>
      <trkpt lat="48.69314" lon="2.05994">
        <ele>113</ele>
        <time>2021-01-17T11:05:54Z</time>
      </trkpt>
      <trkpt lat="48.69334" lon="2.05987">
        <ele>113</ele>
        <time>2021-01-17T11:06:04Z</time>
      </trkpt>
      <trkpt lat="48.69351" lon="2.05975">
        <ele>113</ele>
        <time>2021-01-17T11:06:19Z</time>
      </trkpt>
      <trkpt lat="48.6939" lon="2.05958">
        <ele>112</ele>
        <time>2021-01-17T11:06:54Z</time>
      </trkpt>
      <trkpt lat="48.69407" lon="2.05944">
        <ele>111</ele>
        <time>2021-01-17T11:07:06Z</time>
      </trkpt>
      <trkpt lat="48.69434" lon="2.05934">
        <ele>111</ele>
        <time>2021-01-17T11:07:27Z</time>
      </trkpt>
      <trkpt lat="48.69442" lon="2.05927">
        <ele>110</ele>
        <time>2021-01-17T11:07:34Z</time>
      </trkpt>
      <trkpt lat="48.69481" lon="2.05916">
        <ele>109</ele>
        <time>2021-01-17T11:08:03Z</time>
      </trkpt>
      <trkpt lat="48.69491" lon="2.05916">
        <ele>109</ele>
        <time>2021-01-17T11:08:11Z</time>
      </trkpt>
      <trkpt lat="48.69498" lon="2.05906">
        <ele>109</ele>
        <time>2021-01-17T11:08:21Z</time>
      </trkpt>
      <trkpt lat="48.69496" lon="2.05877">
        <ele>110</ele>
        <time>2021-01-17T11:08:38Z</time>
      </trkpt>
      <trkpt lat="48.69496" lon="2.05862">
        <ele>111</ele>
        <time>2021-01-17T11:08:47Z</time>
      </trkpt>
      <trkpt lat="48.69492" lon="2.05831">
        <ele>113</ele>
        <time>2021-01-17T11:09:05Z</time>
      </trkpt>
      <trkpt lat="48.69496" lon="2.05819">
        <ele>114</ele>
        <time>2021-01-17T11:09:14Z</time>
      </trkpt>
      <trkpt lat="48.69493" lon="2.05805">
        <ele>115</ele>
        <time>2021-01-17T11:09:28Z</time>
      </trkpt>
      <trkpt lat="48.69498" lon="2.05792">
        <ele>116</ele>
        <time>2021-01-17T11:09:38Z</time>
      </trkpt>
      <trkpt lat="48.69499" lon="2.05776">
        <ele>119</ele>
        <time>2021-01-17T11:09:53Z</time>
      </trkpt>
      <trkpt lat="48.69492" lon="2.05762">
        <ele>120</ele>
        <time>2021-01-17T11:10:12Z</time>
      </trkpt>
      <trkpt lat="48.69493" lon="2.05748">
        <ele>123</ele>
        <time>2021-01-17T11:10:48Z</time>
      </trkpt>
      <trkpt lat="48.69494" lon="2.05712">
        <ele>130</ele>
        <time>2021-01-17T11:11:21Z</time>
      </trkpt>
      <trkpt lat="48.69486" lon="2.05705">
        <ele>131</ele>
        <time>2021-01-17T11:11:29Z</time>
      </trkpt>
      <trkpt lat="48.69482" lon="2.05693">
        <ele>133</ele>
        <time>2021-01-17T11:11:40Z</time>
      </trkpt>
      <trkpt lat="48.69471" lon="2.05686">
        <ele>136</ele>
        <time>2021-01-17T11:11:53Z</time>
      </trkpt>
      <trkpt lat="48.69464" lon="2.05677">
        <ele>137</ele>
        <time>2021-01-17T11:12:09Z</time>
      </trkpt>
      <trkpt lat="48.69453" lon="2.05674">
        <ele>139</ele>
        <time>2021-01-17T11:12:45Z</time>
      </trkpt>
      <trkpt lat="48.69446" lon="2.05663">
        <ele>143</ele>
        <time>2021-01-17T11:13:03Z</time>
      </trkpt>
      <trkpt lat="48.69443" lon="2.05639">
        <ele>146</ele>
        <time>2021-01-17T11:13:19Z</time>
      </trkpt>
      <trkpt lat="48.69451" lon="2.05596">
        <ele>151</ele>
        <time>2021-01-17T11:13:46Z</time>
      </trkpt>
      <trkpt lat="48.69461" lon="2.05588">
        <ele>152</ele>
        <time>2021-01-17T11:13:53Z</time>
      </trkpt>
      <trkpt lat="48.69468" lon="2.0558">
        <ele>152</ele>
        <time>2021-01-17T11:14:01Z</time>
      </trkpt>
      <trkpt lat="48.69497" lon="2.05565">
        <ele>153</ele>
        <time>2021-01-17T11:14:29Z</time>
      </trkpt>
      <trkpt lat="48.69504" lon="2.05556">
        <ele>155</ele>
        <time>2021-01-17T11:14:39Z</time>
      </trkpt>
      <trkpt lat="48.69514" lon="2.05552">
        <ele>155</ele>
        <time>2021-01-17T11:14:47Z</time>
      </trkpt>
      <trkpt lat="48.69522" lon="2.05552">
        <ele>155</ele>
        <time>2021-01-17T11:14:57Z</time>
      </trkpt>
      <trkpt lat="48.69538" lon="2.05552">
        <ele>154</ele>
        <time>2021-01-17T11:15:55Z</time>
      </trkpt>
      <trkpt lat="48.69546" lon="2.05557">
        <ele>154</ele>
        <time>2021-01-17T11:16:02Z</time>
      </trkpt>
      <trkpt lat="48.69578" lon="2.05572">
        <ele>154</ele>
        <time>2021-01-17T11:16:27Z</time>
      </trkpt>
      <trkpt lat="48.69587" lon="2.05573">
        <ele>154</ele>
        <time>2021-01-17T11:16:34Z</time>
      </trkpt>
      <trkpt lat="48.69606" lon="2.05576">
        <ele>153</ele>
        <time>2021-01-17T11:16:49Z</time>
      </trkpt>
      <trkpt lat="48.69615" lon="2.05579">
        <ele>154</ele>
        <time>2021-01-17T11:16:57Z</time>
      </trkpt>
      <trkpt lat="48.69627" lon="2.05585">
        <ele>156</ele>
        <time>2021-01-17T11:17:12Z</time>
      </trkpt>
      <trkpt lat="48.69634" lon="2.05577">
        <ele>156</ele>
        <time>2021-01-17T11:17:20Z</time>
      </trkpt>
      <trkpt lat="48.69652" lon="2.05562">
        <ele>164</ele>
        <time>2021-01-17T11:17:56Z</time>
      </trkpt>
      <trkpt lat="48.69653" lon="2.05547">
        <ele>164</ele>
        <time>2021-01-17T11:18:22Z</time>
      </trkpt>
      <trkpt lat="48.69649" lon="2.05534">
        <ele>165</ele>
        <time>2021-01-17T11:18:36Z</time>
      </trkpt>
      <trkpt lat="48.69643" lon="2.05522">
        <ele>166</ele>
        <time>2021-01-17T11:18:44Z</time>
      </trkpt>
      <trkpt lat="48.69641" lon="2.05506">
        <ele>166</ele>
        <time>2021-01-17T11:18:52Z</time>
      </trkpt>
      <trkpt lat="48.6964" lon="2.05492">
        <ele>166</ele>
        <time>2021-01-17T11:18:59Z</time>
      </trkpt>
      <trkpt lat="48.69641" lon="2.05477">
        <ele>166</ele>
        <time>2021-01-17T11:19:06Z</time>
      </trkpt>
      <trkpt lat="48.69639" lon="2.05449">
        <ele>167</ele>
        <time>2021-01-17T11:19:20Z</time>
      </trkpt>
      <trkpt lat="48.69638" lon="2.05374">
        <ele>167</ele>
        <time>2021-01-17T11:19:57Z</time>
      </trkpt>
      <trkpt lat="48.69638" lon="2.05359">
        <ele>167</ele>
        <time>2021-01-17T11:20:05Z</time>
      </trkpt>
      <trkpt lat="48.69637" lon="2.05344">
        <ele>167</ele>
        <time>2021-01-17T11:20:14Z</time>
      </trkpt>
      <trkpt lat="48.69639" lon="2.05272">
        <ele>167</ele>
        <time>2021-01-17T11:20:50Z</time>
      </trkpt>
      <trkpt lat="48.69639" lon="2.05201">
        <ele>168</ele>
        <time>2021-01-17T11:21:27Z</time>
      </trkpt>
      <trkpt lat="48.69639" lon="2.0517">
        <ele>168</ele>
        <time>2021-01-17T11:21:41Z</time>
      </trkpt>
      <trkpt lat="48.69643" lon="2.0514">
        <ele>169</ele>
        <time>2021-01-17T11:21:55Z</time>
      </trkpt>
      <trkpt lat="48.69642" lon="2.05112">
        <ele>169</ele>
        <time>2021-01-17T11:22:09Z</time>
      </trkpt>
      <trkpt lat="48.69646" lon="2.05069">
        <ele>169</ele>
        <time>2021-01-17T11:22:32Z</time>
      </trkpt>
      <trkpt lat="48.69645" lon="2.05007">
        <ele>170</ele>
        <time>2021-01-17T11:23:02Z</time>
      </trkpt>
      <trkpt lat="48.69648" lon="2.04993">
        <ele>170</ele>
        <time>2021-01-17T11:23:09Z</time>
      </trkpt>
      <trkpt lat="48.69645" lon="2.04963">
        <ele>170</ele>
        <time>2021-01-17T11:23:24Z</time>
      </trkpt>
      <trkpt lat="48.69639" lon="2.04937">
        <ele>170</ele>
        <time>2021-01-17T11:23:36Z</time>
      </trkpt>
      <trkpt lat="48.69642" lon="2.04866">
        <ele>171</ele>
        <time>2021-01-17T11:24:11Z</time>
      </trkpt>
      <trkpt lat="48.69644" lon="2.04852">
        <ele>171</ele>
        <time>2021-01-17T11:24:18Z</time>
      </trkpt>
      <trkpt lat="48.69642" lon="2.04779">
        <ele>172</ele>
        <time>2021-01-17T11:24:53Z</time>
      </trkpt>
      <trkpt lat="48.69645" lon="2.04766">
        <ele>171</ele>
        <time>2021-01-17T11:25:00Z</time>
      </trkpt>
      <trkpt lat="48.69642" lon="2.04693">
        <ele>172</ele>
        <time>2021-01-17T11:25:36Z</time>
      </trkpt>
      <trkpt lat="48.69643" lon="2.04618">
        <ele>172</ele>
        <time>2021-01-17T11:26:12Z</time>
      </trkpt>
      <trkpt lat="48.69642" lon="2.04589">
        <ele>172</ele>
        <time>2021-01-17T11:26:26Z</time>
      </trkpt>
      <trkpt lat="48.69648" lon="2.04531">
        <ele>173</ele>
        <time>2021-01-17T11:26:56Z</time>
      </trkpt>
      <trkpt lat="48.69646" lon="2.04488">
        <ele>173</ele>
        <time>2021-01-17T11:27:17Z</time>
      </trkpt>
      <trkpt lat="48.69648" lon="2.04457">
        <ele>173</ele>
        <time>2021-01-17T11:27:34Z</time>
      </trkpt>
      <trkpt lat="48.69645" lon="2.04428">
        <ele>173</ele>
        <time>2021-01-17T11:27:48Z</time>
      </trkpt>
      <trkpt lat="48.69645" lon="2.04355">
        <ele>173</ele>
        <time>2021-01-17T11:28:23Z</time>
      </trkpt>
      <trkpt lat="48.69643" lon="2.04281">
        <ele>173</ele>
        <time>2021-01-17T11:29:01Z</time>
      </trkpt>
      <trkpt lat="48.69644" lon="2.04206">
        <ele>174</ele>
        <time>2021-01-17T11:29:36Z</time>
      </trkpt>
      <trkpt lat="48.69645" lon="2.04191">
        <ele>174</ele>
        <time>2021-01-17T11:29:43Z</time>
      </trkpt>
      <trkpt lat="48.69651" lon="2.04152">
        <ele>174</ele>
        <time>2021-01-17T11:30:13Z</time>
      </trkpt>
      <trkpt lat="48.69648" lon="2.04109">
        <ele>174</ele>
        <time>2021-01-17T11:30:33Z</time>
      </trkpt>
      <trkpt lat="48.6965" lon="2.04094">
        <ele>174</ele>
        <time>2021-01-17T11:30:40Z</time>
      </trkpt>
      <trkpt lat="48.69647" lon="2.04064">
        <ele>174</ele>
        <time>2021-01-17T11:30:53Z</time>
      </trkpt>
      <trkpt lat="48.69647" lon="2.0405">
        <ele>174</ele>
        <time>2021-01-17T11:31:01Z</time>
      </trkpt>
      <trkpt lat="48.6965" lon="2.04036">
        <ele>174</ele>
        <time>2021-01-17T11:31:09Z</time>
      </trkpt>
      <trkpt lat="48.69649" lon="2.03961">
        <ele>173</ele>
        <time>2021-01-17T11:31:44Z</time>
      </trkpt>
      <trkpt lat="48.69649" lon="2.03888">
        <ele>173</ele>
        <time>2021-01-17T11:32:19Z</time>
      </trkpt>
      <trkpt lat="48.69652" lon="2.03815">
        <ele>172</ele>
        <time>2021-01-17T11:32:54Z</time>
      </trkpt>
      <trkpt lat="48.69657" lon="2.03828">
        <ele>172</ele>
        <time>2021-01-17T11:33:32Z</time>
      </trkpt>
      <trkpt lat="48.69661" lon="2.03833">
        <ele>172</ele>
        <time>2021-01-17T11:33:37Z</time>
      </trkpt>
      <trkpt lat="48.69666" lon="2.03836">
        <ele>172</ele>
        <time>2021-01-17T11:33:46Z</time>
      </trkpt>
      <trkpt lat="48.69671" lon="2.0384">
        <ele>172</ele>
        <time>2021-01-17T11:33:51Z</time>
      </trkpt>
      <trkpt lat="48.6968" lon="2.03844">
        <ele>172</ele>
        <time>2021-01-17T11:33:59Z</time>
      </trkpt>
      <trkpt lat="48.69685" lon="2.03846">
        <ele>172</ele>
        <time>2021-01-17T11:34:02Z</time>
      </trkpt>
      <trkpt lat="48.69722" lon="2.03872">
        <ele>172</ele>
        <time>2021-01-17T11:34:34Z</time>
      </trkpt>
      <trkpt lat="48.69766" lon="2.03902">
        <ele>171</ele>
        <time>2021-01-17T11:35:08Z</time>
      </trkpt>
      <trkpt lat="48.69789" lon="2.03913">
        <ele>170</ele>
        <time>2021-01-17T11:35:26Z</time>
      </trkpt>
      <trkpt lat="48.69803" lon="2.03928">
        <ele>170</ele>
        <time>2021-01-17T11:35:39Z</time>
      </trkpt>
      <trkpt lat="48.69837" lon="2.03953">
        <ele>164</ele>
        <time>2021-01-17T11:36:07Z</time>
      </trkpt>
      <trkpt lat="48.69862" lon="2.03964">
        <ele>160</ele>
        <time>2021-01-17T11:36:26Z</time>
      </trkpt>
      <trkpt lat="48.69881" lon="2.03978">
        <ele>157</ele>
        <time>2021-01-17T11:36:42Z</time>
      </trkpt>
      <trkpt lat="48.69891" lon="2.03983">
        <ele>155</ele>
        <time>2021-01-17T11:36:50Z</time>
      </trkpt>
      <trkpt lat="48.69899" lon="2.03983">
        <ele>153</ele>
        <time>2021-01-17T11:37:00Z</time>
      </trkpt>
      <trkpt lat="48.69924" lon="2.04005">
        <ele>146</ele>
        <time>2021-01-17T11:37:30Z</time>
      </trkpt>
      <trkpt lat="48.69934" lon="2.04011">
        <ele>144</ele>
        <time>2021-01-17T11:37:39Z</time>
      </trkpt>
      <trkpt lat="48.69951" lon="2.04025">
        <ele>141</ele>
        <time>2021-01-17T11:38:00Z</time>
      </trkpt>
      <trkpt lat="48.69957" lon="2.04022">
        <ele>140</ele>
        <time>2021-01-17T11:38:09Z</time>
      </trkpt>
      <trkpt lat="48.69962" lon="2.04022">
        <ele>139</ele>
        <time>2021-01-17T11:38:14Z</time>
      </trkpt>
      <trkpt lat="48.69979" lon="2.04039">
        <ele>136</ele>
        <time>2021-01-17T11:38:31Z</time>
      </trkpt>
      <trkpt lat="48.69988" lon="2.04052">
        <ele>134</ele>
        <time>2021-01-17T11:38:47Z</time>
      </trkpt>
      <trkpt lat="48.6999" lon="2.0406">
        <ele>132</ele>
        <time>2021-01-17T11:38:55Z</time>
      </trkpt>
      <trkpt lat="48.69998" lon="2.04069">
        <ele>131</ele>
        <time>2021-01-17T11:39:03Z</time>
      </trkpt>
      <trkpt lat="48.70008" lon="2.04067">
        <ele>129</ele>
        <time>2021-01-17T11:39:16Z</time>
      </trkpt>
      <trkpt lat="48.70012" lon="2.04063">
        <ele>128</ele>
        <time>2021-01-17T11:39:21Z</time>
      </trkpt>
      <trkpt lat="48.70017" lon="2.04061">
        <ele>127</ele>
        <time>2021-01-17T11:39:25Z</time>
      </trkpt>
      <trkpt lat="48.70031" lon="2.04068">
        <ele>126</ele>
        <time>2021-01-17T11:39:38Z</time>
      </trkpt>
      <trkpt lat="48.70037" lon="2.04066">
        <ele>124</ele>
        <time>2021-01-17T11:39:46Z</time>
      </trkpt>
      <trkpt lat="48.7006" lon="2.04073">
        <ele>121</ele>
        <time>2021-01-17T11:40:06Z</time>
      </trkpt>
      <trkpt lat="48.70068" lon="2.04079">
        <ele>120</ele>
        <time>2021-01-17T11:40:14Z</time>
      </trkpt>
      <trkpt lat="48.70093" lon="2.04079">
        <ele>117</ele>
        <time>2021-01-17T11:40:38Z</time>
      </trkpt>
      <trkpt lat="48.70098" lon="2.04082">
        <ele>116</ele>
        <time>2021-01-17T11:40:42Z</time>
      </trkpt>
      <trkpt lat="48.70103" lon="2.04082">
        <ele>116</ele>
        <time>2021-01-17T11:40:47Z</time>
      </trkpt>
      <trkpt lat="48.70108" lon="2.04079">
        <ele>115</ele>
        <time>2021-01-17T11:40:52Z</time>
      </trkpt>
      <trkpt lat="48.70123" lon="2.04075">
        <ele>113</ele>
        <time>2021-01-17T11:41:07Z</time>
      </trkpt>
      <trkpt lat="48.70129" lon="2.04071">
        <ele>113</ele>
        <time>2021-01-17T11:41:12Z</time>
      </trkpt>
      <trkpt lat="48.70134" lon="2.04072">
        <ele>112</ele>
        <time>2021-01-17T11:41:17Z</time>
      </trkpt>
      <trkpt lat="48.7014" lon="2.04069">
        <ele>112</ele>
        <time>2021-01-17T11:41:23Z</time>
      </trkpt>
      <trkpt lat="48.70169" lon="2.04059">
        <ele>109</ele>
        <time>2021-01-17T11:41:48Z</time>
      </trkpt>
      <trkpt lat="48.70174" lon="2.0406">
        <ele>108</ele>
        <time>2021-01-17T11:41:52Z</time>
      </trkpt>
      <trkpt lat="48.70203" lon="2.04051">
        <ele>106</ele>
        <time>2021-01-17T11:42:18Z</time>
      </trkpt>
      <trkpt lat="48.70213" lon="2.04052">
        <ele>106</ele>
        <time>2021-01-17T11:42:42Z</time>
      </trkpt>
      <trkpt lat="48.70218" lon="2.04052">
        <ele>106</ele>
        <time>2021-01-17T11:42:47Z</time>
      </trkpt>
      <trkpt lat="48.70229" lon="2.04047">
        <ele>105</ele>
        <time>2021-01-17T11:42:56Z</time>
      </trkpt>
      <trkpt lat="48.70234" lon="2.04047">
        <ele>105</ele>
        <time>2021-01-17T11:43:00Z</time>
      </trkpt>
      <trkpt lat="48.70239" lon="2.04046">
        <ele>105</ele>
        <time>2021-01-17T11:43:03Z</time>
      </trkpt>
      <trkpt lat="48.70246" lon="2.04046">
        <ele>103</ele>
        <time>2021-01-17T11:43:11Z</time>
      </trkpt>
      <trkpt lat="48.70251" lon="2.04043">
        <ele>103</ele>
        <time>2021-01-17T11:43:16Z</time>
      </trkpt>
      <trkpt lat="48.70266" lon="2.04038">
        <ele>102</ele>
        <time>2021-01-17T11:43:29Z</time>
      </trkpt>
      <trkpt lat="48.70276" lon="2.04032">
        <ele>101</ele>
        <time>2021-01-17T11:43:38Z</time>
      </trkpt>
      <trkpt lat="48.70286" lon="2.04022">
        <ele>101</ele>
        <time>2021-01-17T11:43:46Z</time>
      </trkpt>
      <trkpt lat="48.70296" lon="2.04019">
        <ele>100</ele>
        <time>2021-01-17T11:43:54Z</time>
      </trkpt>
      <trkpt lat="48.703" lon="2.04015">
        <ele>100</ele>
        <time>2021-01-17T11:43:58Z</time>
      </trkpt>
      <trkpt lat="48.70305" lon="2.04012">
        <ele>100</ele>
        <time>2021-01-17T11:44:02Z</time>
      </trkpt>
      <trkpt lat="48.70307" lon="2.04007">
        <ele>97</ele>
        <time>2021-01-17T11:44:06Z</time>
      </trkpt>
      <trkpt lat="48.70312" lon="2.04002">
        <ele>99</ele>
        <time>2021-01-17T11:44:13Z</time>
      </trkpt>
      <trkpt lat="48.70329" lon="2.03993">
        <ele>98</ele>
        <time>2021-01-17T11:44:36Z</time>
      </trkpt>
      <trkpt lat="48.70334" lon="2.03989">
        <ele>97</ele>
        <time>2021-01-17T11:44:41Z</time>
      </trkpt>
      <trkpt lat="48.70342" lon="2.0398">
        <ele>96</ele>
        <time>2021-01-17T11:44:50Z</time>
      </trkpt>
      <trkpt lat="48.70348" lon="2.03967">
        <ele>95</ele>
        <time>2021-01-17T11:44:59Z</time>
      </trkpt>
      <trkpt lat="48.70366" lon="2.03952">
        <ele>93</ele>
        <time>2021-01-17T11:45:17Z</time>
      </trkpt>
      <trkpt lat="48.70387" lon="2.03947">
        <ele>92</ele>
        <time>2021-01-17T11:45:35Z</time>
      </trkpt>
      <trkpt lat="48.70392" lon="2.03944">
        <ele>92</ele>
        <time>2021-01-17T11:45:39Z</time>
      </trkpt>
      <trkpt lat="48.70421" lon="2.03936">
        <ele>90</ele>
        <time>2021-01-17T11:46:02Z</time>
      </trkpt>
      <trkpt lat="48.70426" lon="2.03933">
        <ele>90</ele>
        <time>2021-01-17T11:46:09Z</time>
      </trkpt>
      <trkpt lat="48.70431" lon="2.03938">
        <ele>90</ele>
        <time>2021-01-17T11:46:15Z</time>
      </trkpt>
      <trkpt lat="48.70436" lon="2.03928">
        <ele>91</ele>
        <time>2021-01-17T11:47:47Z</time>
      </trkpt>
      <trkpt lat="48.70447" lon="2.03871">
        <ele>90</ele>
        <time>2021-01-17T11:48:20Z</time>
      </trkpt>
      <trkpt lat="48.70448" lon="2.03864">
        <ele>89</ele>
        <time>2021-01-17T11:48:24Z</time>
      </trkpt>
      <trkpt lat="48.70446" lon="2.0384">
        <ele>89</ele>
        <time>2021-01-17T11:48:37Z</time>
      </trkpt>
      <trkpt lat="48.7045" lon="2.03809">
        <ele>88</ele>
        <time>2021-01-17T11:48:53Z</time>
      </trkpt>
      <trkpt lat="48.70455" lon="2.03805">
        <ele>88</ele>
        <time>2021-01-17T11:49:01Z</time>
      </trkpt>
      <trkpt lat="48.70457" lon="2.03798">
        <ele>88</ele>
        <time>2021-01-17T11:49:06Z</time>
      </trkpt>
      <trkpt lat="48.70457" lon="2.0379">
        <ele>88</ele>
        <time>2021-01-17T11:49:10Z</time>
      </trkpt>
      <trkpt lat="48.70458" lon="2.03782">
        <ele>88</ele>
        <time>2021-01-17T11:49:14Z</time>
      </trkpt>
      <trkpt lat="48.70462" lon="2.03777">
        <ele>88</ele>
        <time>2021-01-17T11:49:18Z</time>
      </trkpt>
      <trkpt lat="48.70476" lon="2.03769">
        <ele>87</ele>
        <time>2021-01-17T11:49:29Z</time>
      </trkpt>
      <trkpt lat="48.70487" lon="2.03767">
        <ele>87</ele>
        <time>2021-01-17T11:49:37Z</time>
      </trkpt>
      <trkpt lat="48.70518" lon="2.03772">
        <ele>86</ele>
        <time>2021-01-17T11:50:00Z</time>
      </trkpt>
      <trkpt lat="48.70539" lon="2.0377">
        <ele>86</ele>
        <time>2021-01-17T11:50:16Z</time>
      </trkpt>
      <trkpt lat="48.70545" lon="2.03772">
        <ele>85</ele>
        <time>2021-01-17T11:50:20Z</time>
      </trkpt>
      <trkpt lat="48.70547" lon="2.03781">
        <ele>85</ele>
        <time>2021-01-17T11:50:24Z</time>
      </trkpt>
      <trkpt lat="48.70547" lon="2.0379">
        <ele>85</ele>
        <time>2021-01-17T11:50:28Z</time>
      </trkpt>
      <trkpt lat="48.70548" lon="2.03799">
        <ele>85</ele>
        <time>2021-01-17T11:50:32Z</time>
      </trkpt>
      <trkpt lat="48.7055" lon="2.03822">
        <ele>85</ele>
        <time>2021-01-17T11:50:44Z</time>
      </trkpt>
      <trkpt lat="48.70552" lon="2.03829">
        <ele>85</ele>
        <time>2021-01-17T11:50:48Z</time>
      </trkpt>
      <trkpt lat="48.70556" lon="2.03833">
        <ele>85</ele>
        <time>2021-01-17T11:50:53Z</time>
      </trkpt>
      <trkpt lat="48.70561" lon="2.03838">
        <ele>85</ele>
        <time>2021-01-17T11:50:57Z</time>
      </trkpt>
      <trkpt lat="48.70568" lon="2.03849">
        <ele>85</ele>
        <time>2021-01-17T11:51:05Z</time>
      </trkpt>
      <trkpt lat="48.70574" lon="2.03859">
        <ele>84</ele>
        <time>2021-01-17T11:51:14Z</time>
      </trkpt>
      <trkpt lat="48.70576" lon="2.03865">
        <ele>84</ele>
        <time>2021-01-17T11:51:19Z</time>
      </trkpt>
      <trkpt lat="48.7058" lon="2.03872">
        <ele>84</ele>
        <time>2021-01-17T11:51:24Z</time>
      </trkpt>
      <trkpt lat="48.706" lon="2.03894">
        <ele>84</ele>
        <time>2021-01-17T11:51:42Z</time>
      </trkpt>
      <trkpt lat="48.70607" lon="2.03902">
        <ele>85</ele>
        <time>2021-01-17T11:52:06Z</time>
      </trkpt>
      <trkpt lat="48.70611" lon="2.03907">
        <ele>85</ele>
        <time>2021-01-17T11:52:10Z</time>
      </trkpt>
      <trkpt lat="48.70614" lon="2.03912">
        <ele>85</ele>
        <time>2021-01-17T11:52:14Z</time>
      </trkpt>
      <trkpt lat="48.70618" lon="2.03917">
        <ele>85</ele>
        <time>2021-01-17T11:52:18Z</time>
      </trkpt>
      <trkpt lat="48.70622" lon="2.03922">
        <ele>85</ele>
        <time>2021-01-17T11:52:22Z</time>
      </trkpt>
      <trkpt lat="48.7063" lon="2.03933">
        <ele>85</ele>
        <time>2021-01-17T11:52:30Z</time>
      </trkpt>
      <trkpt lat="48.70634" lon="2.03937">
        <ele>85</ele>
        <time>2021-01-17T11:52:33Z</time>
      </trkpt>
      <trkpt lat="48.70636" lon="2.03945">
        <ele>85</ele>
        <time>2021-01-17T11:52:37Z</time>
      </trkpt>
      <trkpt lat="48.7064" lon="2.03949">
        <ele>84</ele>
        <time>2021-01-17T11:52:41Z</time>
      </trkpt>
      <trkpt lat="48.70657" lon="2.03966">
        <ele>85</ele>
        <time>2021-01-17T11:53:14Z</time>
      </trkpt>
      <trkpt lat="48.70661" lon="2.03971">
        <ele>85</ele>
        <time>2021-01-17T11:53:17Z</time>
      </trkpt>
      <trkpt lat="48.70665" lon="2.03976">
        <ele>85</ele>
        <time>2021-01-17T11:53:21Z</time>
      </trkpt>
      <trkpt lat="48.70668" lon="2.03981">
        <ele>85</ele>
        <time>2021-01-17T11:53:25Z</time>
      </trkpt>
      <trkpt lat="48.70675" lon="2.03978">
        <ele>85</ele>
        <time>2021-01-17T11:53:32Z</time>
      </trkpt>
      <trkpt lat="48.70684" lon="2.03976">
        <ele>85</ele>
        <time>2021-01-17T11:53:39Z</time>
      </trkpt>
      <trkpt lat="48.70694" lon="2.03975">
        <ele>86</ele>
        <time>2021-01-17T11:53:47Z</time>
      </trkpt>
      <trkpt lat="48.70713" lon="2.03963">
        <ele>87</ele>
        <time>2021-01-17T11:54:03Z</time>
      </trkpt>
      <trkpt lat="48.70718" lon="2.03958">
        <ele>87</ele>
        <time>2021-01-17T11:54:07Z</time>
      </trkpt>
      <trkpt lat="48.70736" lon="2.03942">
        <ele>88</ele>
        <time>2021-01-17T11:54:22Z</time>
      </trkpt>
      <trkpt lat="48.70739" lon="2.03935">
        <ele>88</ele>
        <time>2021-01-17T11:54:27Z</time>
      </trkpt>
      <trkpt lat="48.70744" lon="2.03939">
        <ele>89</ele>
        <time>2021-01-17T11:54:33Z</time>
      </trkpt>
      <trkpt lat="48.70755" lon="2.03967">
        <ele>90</ele>
        <time>2021-01-17T11:54:54Z</time>
      </trkpt>
      <trkpt lat="48.70761" lon="2.03982">
        <ele>91</ele>
        <time>2021-01-17T11:55:49Z</time>
      </trkpt>
      <trkpt lat="48.70764" lon="2.03977">
        <ele>91</ele>
        <time>2021-01-17T11:56:33Z</time>
      </trkpt>
      <trkpt lat="48.70769" lon="2.03995">
        <ele>91</ele>
        <time>2021-01-17T11:58:22Z</time>
      </trkpt>
      <trkpt lat="48.70784" lon="2.04022">
        <ele>92</ele>
        <time>2021-01-17T11:58:44Z</time>
      </trkpt>
      <trkpt lat="48.70793" lon="2.04029">
        <ele>92</ele>
        <time>2021-01-17T11:58:52Z</time>
      </trkpt>
      <trkpt lat="48.70802" lon="2.0403">
        <ele>93</ele>
        <time>2021-01-17T11:59:01Z</time>
      </trkpt>
      <trkpt lat="48.70807" lon="2.04035">
        <ele>93</ele>
        <time>2021-01-17T11:59:06Z</time>
      </trkpt>
      <trkpt lat="48.7081" lon="2.04042">
        <ele>94</ele>
        <time>2021-01-17T11:59:11Z</time>
      </trkpt>
      <trkpt lat="48.70815" lon="2.04044">
        <ele>94</ele>
        <time>2021-01-17T11:59:16Z</time>
      </trkpt>
      <trkpt lat="48.70828" lon="2.04044">
        <ele>95</ele>
        <time>2021-01-17T11:59:26Z</time>
      </trkpt>
      <trkpt lat="48.70835" lon="2.04053">
        <ele>96</ele>
        <time>2021-01-17T11:59:33Z</time>
      </trkpt>
      <trkpt lat="48.70833" lon="2.04069">
        <ele>97</ele>
        <time>2021-01-17T11:59:40Z</time>
      </trkpt>
      <trkpt lat="48.70832" lon="2.04076">
        <ele>97</ele>
        <time>2021-01-17T11:59:44Z</time>
      </trkpt>
      <trkpt lat="48.70829" lon="2.04083">
        <ele>96</ele>
        <time>2021-01-17T11:59:49Z</time>
      </trkpt>
      <trkpt lat="48.70826" lon="2.0409">
        <ele>96</ele>
        <time>2021-01-17T11:59:54Z</time>
      </trkpt>
      <trkpt lat="48.70829" lon="2.04095">
        <ele>96</ele>
        <time>2021-01-17T11:59:58Z</time>
      </trkpt>
      <trkpt lat="48.70857" lon="2.04118">
        <ele>101</ele>
        <time>2021-01-17T12:00:24Z</time>
      </trkpt>
      <trkpt lat="48.70865" lon="2.04121">
        <ele>104</ele>
        <time>2021-01-17T12:00:35Z</time>
      </trkpt>
      <trkpt lat="48.70871" lon="2.04117">
        <ele>106</ele>
        <time>2021-01-17T12:00:45Z</time>
      </trkpt>
      <trkpt lat="48.70878" lon="2.04103">
        <ele>108</ele>
        <time>2021-01-17T12:00:56Z</time>
      </trkpt>
      <trkpt lat="48.70886" lon="2.04098">
        <ele>110</ele>
        <time>2021-01-17T12:01:07Z</time>
      </trkpt>
      <trkpt lat="48.70891" lon="2.04085">
        <ele>111</ele>
        <time>2021-01-17T12:01:15Z</time>
      </trkpt>
      <trkpt lat="48.70894" lon="2.04079">
        <ele>111</ele>
        <time>2021-01-17T12:01:20Z</time>
      </trkpt>
      <trkpt lat="48.70898" lon="2.04082">
        <ele>111</ele>
        <time>2021-01-17T12:01:25Z</time>
      </trkpt>
      <trkpt lat="48.70905" lon="2.04093">
        <ele>113</ele>
        <time>2021-01-17T12:01:34Z</time>
      </trkpt>
      <trkpt lat="48.70907" lon="2.04101">
        <ele>114</ele>
        <time>2021-01-17T12:01:39Z</time>
      </trkpt>
      <trkpt lat="48.7091" lon="2.04119">
        <ele>116</ele>
        <time>2021-01-17T12:01:54Z</time>
      </trkpt>
      <trkpt lat="48.70909" lon="2.04132">
        <ele>119</ele>
        <time>2021-01-17T12:02:06Z</time>
      </trkpt>
      <trkpt lat="48.70909" lon="2.04138">
        <ele>120</ele>
        <time>2021-01-17T12:02:12Z</time>
      </trkpt>
      <trkpt lat="48.70913" lon="2.04157">
        <ele>123</ele>
        <time>2021-01-17T12:02:30Z</time>
      </trkpt>
      <trkpt lat="48.70918" lon="2.04162">
        <ele>123</ele>
        <time>2021-01-17T12:02:36Z</time>
      </trkpt>
      <trkpt lat="48.7092" lon="2.04171">
        <ele>125</ele>
        <time>2021-01-17T12:02:44Z</time>
      </trkpt>
      <trkpt lat="48.70923" lon="2.04177">
        <ele>129</ele>
        <time>2021-01-17T12:03:01Z</time>
      </trkpt>
      <trkpt lat="48.70929" lon="2.04183">
        <ele>133</ele>
        <time>2021-01-17T12:03:13Z</time>
      </trkpt>
      <trkpt lat="48.70936" lon="2.0418">
        <ele>134</ele>
        <time>2021-01-17T12:03:24Z</time>
      </trkpt>
      <trkpt lat="48.70941" lon="2.04172">
        <ele>135</ele>
        <time>2021-01-17T12:03:32Z</time>
      </trkpt>
      <trkpt lat="48.70947" lon="2.0416">
        <ele>135</ele>
        <time>2021-01-17T12:03:42Z</time>
      </trkpt>
      <trkpt lat="48.7095" lon="2.04168">
        <ele>136</ele>
        <time>2021-01-17T12:03:49Z</time>
      </trkpt>
      <trkpt lat="48.70947" lon="2.04183">
        <ele>138</ele>
        <time>2021-01-17T12:03:59Z</time>
      </trkpt>
      <trkpt lat="48.70944" lon="2.04189">
        <ele>139</ele>
        <time>2021-01-17T12:04:04Z</time>
      </trkpt>
      <trkpt lat="48.70944" lon="2.04207">
        <ele>141</ele>
        <time>2021-01-17T12:04:16Z</time>
      </trkpt>
      <trkpt lat="48.70944" lon="2.04218">
        <ele>142</ele>
        <time>2021-01-17T12:04:26Z</time>
      </trkpt>
      <trkpt lat="48.70949" lon="2.04222">
        <ele>144</ele>
        <time>2021-01-17T12:04:32Z</time>
      </trkpt>
      <trkpt lat="48.70954" lon="2.04219">
        <ele>145</ele>
        <time>2021-01-17T12:04:37Z</time>
      </trkpt>
      <trkpt lat="48.70957" lon="2.04213">
        <ele>146</ele>
        <time>2021-01-17T12:04:42Z</time>
      </trkpt>
      <trkpt lat="48.7096" lon="2.04206">
        <ele>147</ele>
        <time>2021-01-17T12:04:47Z</time>
      </trkpt>
      <trkpt lat="48.7096" lon="2.04193">
        <ele>148</ele>
        <time>2021-01-17T12:04:55Z</time>
      </trkpt>
      <trkpt lat="48.70967" lon="2.04173">
        <ele>150</ele>
        <time>2021-01-17T12:05:10Z</time>
      </trkpt>
      <trkpt lat="48.7097" lon="2.04168">
        <ele>151</ele>
        <time>2021-01-17T12:05:15Z</time>
      </trkpt>
      <trkpt lat="48.70979" lon="2.04164">
        <ele>152</ele>
        <time>2021-01-17T12:05:25Z</time>
      </trkpt>
      <trkpt lat="48.70984" lon="2.0416">
        <ele>153</ele>
        <time>2021-01-17T12:05:34Z</time>
      </trkpt>
      <trkpt lat="48.70995" lon="2.04156">
        <ele>156</ele>
        <time>2021-01-17T12:05:47Z</time>
      </trkpt>
      <trkpt lat="48.71" lon="2.04156">
        <ele>157</ele>
        <time>2021-01-17T12:05:53Z</time>
      </trkpt>
      <trkpt lat="48.71005" lon="2.04153">
        <ele>158</ele>
        <time>2021-01-17T12:05:59Z</time>
      </trkpt>
      <trkpt lat="48.7101" lon="2.04148">
        <ele>160</ele>
        <time>2021-01-17T12:06:07Z</time>
      </trkpt>
      <trkpt lat="48.71013" lon="2.04147">
        <ele>157</ele>
        <time>2021-01-17T12:11:07Z</time>
      </trkpt>
      <trkpt lat="48.71015" lon="2.04153">
        <ele>157</ele>
        <time>2021-01-17T12:11:12Z</time>
      </trkpt>
      <trkpt lat="48.71017" lon="2.04163">
        <ele>157</ele>
        <time>2021-01-17T12:11:40Z</time>
      </trkpt>
      <trkpt lat="48.71018" lon="2.0417">
        <ele>156</ele>
        <time>2021-01-17T12:11:50Z</time>
      </trkpt>
      <trkpt lat="48.71022" lon="2.04163">
        <ele>154</ele>
        <time>2021-01-17T12:12:11Z</time>
      </trkpt>
      <trkpt lat="48.71018" lon="2.0417">
        <ele>154</ele>
        <time>2021-01-17T12:12:41Z</time>
      </trkpt>
      <trkpt lat="48.71021" lon="2.04164">
        <ele>154</ele>
        <time>2021-01-17T12:13:43Z</time>
      </trkpt>
      <trkpt lat="48.71031" lon="2.04168">
        <ele>154</ele>
        <time>2021-01-17T12:13:58Z</time>
      </trkpt>
      <trkpt lat="48.71016" lon="2.04142">
        <ele>147</ele>
        <time>2021-01-17T13:04:28Z</time>
      </trkpt>
      <trkpt lat="48.71018" lon="2.04138">
        <ele>147</ele>
        <time>2021-01-17T13:04:29Z</time>
      </trkpt>
      <trkpt lat="48.71021" lon="2.04131">
        <ele>147</ele>
        <time>2021-01-17T13:04:41Z</time>
      </trkpt>
      <trkpt lat="48.71026" lon="2.04114">
        <ele>147</ele>
        <time>2021-01-17T13:04:48Z</time>
      </trkpt>
      <trkpt lat="48.71031" lon="2.04113">
        <ele>147</ele>
        <time>2021-01-17T13:04:52Z</time>
      </trkpt>
      <trkpt lat="48.71036" lon="2.04114">
        <ele>147</ele>
        <time>2021-01-17T13:04:57Z</time>
      </trkpt>
      <trkpt lat="48.71053" lon="2.04111">
        <ele>147</ele>
        <time>2021-01-17T13:05:11Z</time>
      </trkpt>
      <trkpt lat="48.71058" lon="2.04117">
        <ele>147</ele>
        <time>2021-01-17T13:05:15Z</time>
      </trkpt>
      <trkpt lat="48.71061" lon="2.04124">
        <ele>148</ele>
        <time>2021-01-17T13:05:18Z</time>
      </trkpt>
      <trkpt lat="48.71065" lon="2.0413">
        <ele>148</ele>
        <time>2021-01-17T13:05:21Z</time>
      </trkpt>
      <trkpt lat="48.71068" lon="2.04134">
        <ele>148</ele>
        <time>2021-01-17T13:05:24Z</time>
      </trkpt>
      <trkpt lat="48.71077" lon="2.04139">
        <ele>148</ele>
        <time>2021-01-17T13:05:32Z</time>
      </trkpt>
      <trkpt lat="48.71114" lon="2.04144">
        <ele>150</ele>
        <time>2021-01-17T13:06:08Z</time>
      </trkpt>
      <trkpt lat="48.71118" lon="2.04144">
        <ele>151</ele>
        <time>2021-01-17T13:06:11Z</time>
      </trkpt>
      <trkpt lat="48.71123" lon="2.04147">
        <ele>151</ele>
        <time>2021-01-17T13:06:16Z</time>
      </trkpt>
      <trkpt lat="48.7114" lon="2.04202">
        <ele>151</ele>
        <time>2021-01-17T13:06:48Z</time>
      </trkpt>
      <trkpt lat="48.71142" lon="2.04209">
        <ele>152</ele>
        <time>2021-01-17T13:06:52Z</time>
      </trkpt>
      <trkpt lat="48.71147" lon="2.04216">
        <ele>152</ele>
        <time>2021-01-17T13:06:59Z</time>
      </trkpt>
      <trkpt lat="48.71154" lon="2.04245">
        <ele>152</ele>
        <time>2021-01-17T13:07:16Z</time>
      </trkpt>
      <trkpt lat="48.71149" lon="2.04273">
        <ele>153</ele>
        <time>2021-01-17T13:07:31Z</time>
      </trkpt>
      <trkpt lat="48.71152" lon="2.04286">
        <ele>153</ele>
        <time>2021-01-17T13:07:37Z</time>
      </trkpt>
      <trkpt lat="48.71163" lon="2.04318">
        <ele>153</ele>
        <time>2021-01-17T13:08:05Z</time>
      </trkpt>
      <trkpt lat="48.71167" lon="2.0433">
        <ele>153</ele>
        <time>2021-01-17T13:08:10Z</time>
      </trkpt>
      <trkpt lat="48.71168" lon="2.04345">
        <ele>153</ele>
        <time>2021-01-17T13:08:17Z</time>
      </trkpt>
      <trkpt lat="48.71166" lon="2.04359">
        <ele>154</ele>
        <time>2021-01-17T13:08:25Z</time>
      </trkpt>
      <trkpt lat="48.71167" lon="2.04372">
        <ele>154</ele>
        <time>2021-01-17T13:08:55Z</time>
      </trkpt>
      <trkpt lat="48.71167" lon="2.04395">
        <ele>155</ele>
        <time>2021-01-17T13:09:08Z</time>
      </trkpt>
      <trkpt lat="48.71162" lon="2.04421">
        <ele>155</ele>
        <time>2021-01-17T13:09:21Z</time>
      </trkpt>
      <trkpt lat="48.71163" lon="2.04436">
        <ele>155</ele>
        <time>2021-01-17T13:09:29Z</time>
      </trkpt>
      <trkpt lat="48.71162" lon="2.04449">
        <ele>155</ele>
        <time>2021-01-17T13:09:38Z</time>
      </trkpt>
      <trkpt lat="48.71164" lon="2.04468">
        <ele>155</ele>
        <time>2021-01-17T13:09:53Z</time>
      </trkpt>
      <trkpt lat="48.71161" lon="2.04482">
        <ele>155</ele>
        <time>2021-01-17T13:09:59Z</time>
      </trkpt>
      <trkpt lat="48.71163" lon="2.04498">
        <ele>156</ele>
        <time>2021-01-17T13:10:05Z</time>
      </trkpt>
      <trkpt lat="48.71157" lon="2.04612">
        <ele>156</ele>
        <time>2021-01-17T13:11:01Z</time>
      </trkpt>
      <trkpt lat="48.7116" lon="2.04647">
        <ele>157</ele>
        <time>2021-01-17T13:11:12Z</time>
      </trkpt>
      <trkpt lat="48.71154" lon="2.04658">
        <ele>157</ele>
        <time>2021-01-17T13:11:20Z</time>
      </trkpt>
      <trkpt lat="48.71179" lon="2.04674">
        <ele>157</ele>
        <time>2021-01-17T13:11:58Z</time>
      </trkpt>
      <trkpt lat="48.7114" lon="2.04715">
        <ele>157</ele>
        <time>2021-01-17T13:12:33Z</time>
      </trkpt>
      <trkpt lat="48.71122" lon="2.0476">
        <ele>155</ele>
        <time>2021-01-17T13:13:05Z</time>
      </trkpt>
      <trkpt lat="48.71096" lon="2.04768">
        <ele>155</ele>
        <time>2021-01-17T13:13:15Z</time>
      </trkpt>
      <trkpt lat="48.71089" lon="2.04804">
        <ele>154</ele>
        <time>2021-01-17T13:13:41Z</time>
      </trkpt>
      <trkpt lat="48.71074" lon="2.04825">
        <ele>153</ele>
        <time>2021-01-17T13:13:55Z</time>
      </trkpt>
      <trkpt lat="48.7104" lon="2.04844">
        <ele>151</ele>
        <time>2021-01-17T13:14:22Z</time>
      </trkpt>
      <trkpt lat="48.71046" lon="2.04855">
        <ele>151</ele>
        <time>2021-01-17T13:14:34Z</time>
      </trkpt>
      <trkpt lat="48.71058" lon="2.04849">
        <ele>151</ele>
        <time>2021-01-17T13:15:06Z</time>
      </trkpt>
      <trkpt lat="48.71062" lon="2.04833">
        <ele>152</ele>
        <time>2021-01-17T13:15:25Z</time>
      </trkpt>
      <trkpt lat="48.71052" lon="2.04821">
        <ele>151</ele>
        <time>2021-01-17T13:15:50Z</time>
      </trkpt>
      <trkpt lat="48.71041" lon="2.04824">
        <ele>150</ele>
        <time>2021-01-17T13:16:30Z</time>
      </trkpt>
      <trkpt lat="48.71022" lon="2.04834">
        <ele>149</ele>
        <time>2021-01-17T13:16:52Z</time>
      </trkpt>
      <trkpt lat="48.7103" lon="2.04847">
        <ele>149</ele>
        <time>2021-01-17T13:17:17Z</time>
      </trkpt>
      <trkpt lat="48.71039" lon="2.04847">
        <ele>150</ele>
        <time>2021-01-17T13:17:50Z</time>
      </trkpt>
      <trkpt lat="48.71033" lon="2.04853">
        <ele>150</ele>
        <time>2021-01-17T13:18:03Z</time>
      </trkpt>
      <trkpt lat="48.71034" lon="2.04853">
        <ele>150</ele>
        <time>2021-01-17T13:18:47Z</time>
      </trkpt>
      <trkpt lat="48.71017" lon="2.04873">
        <ele>150</ele>
        <time>2021-01-17T13:19:07Z</time>
      </trkpt>
      <trkpt lat="48.71009" lon="2.04878">
        <ele>149</ele>
        <time>2021-01-17T13:19:14Z</time>
      </trkpt>
      <trkpt lat="48.71011" lon="2.04863">
        <ele>149</ele>
        <time>2021-01-17T13:19:32Z</time>
      </trkpt>
      <trkpt lat="48.71021" lon="2.04873">
        <ele>149</ele>
        <time>2021-01-17T13:20:44Z</time>
      </trkpt>
      <trkpt lat="48.71016" lon="2.04889">
        <ele>149</ele>
        <time>2021-01-17T13:21:00Z</time>
      </trkpt>
      <trkpt lat="48.71019" lon="2.04903">
        <ele>149</ele>
        <time>2021-01-17T13:21:10Z</time>
      </trkpt>
      <trkpt lat="48.71025" lon="2.04913">
        <ele>150</ele>
        <time>2021-01-17T13:21:17Z</time>
      </trkpt>
      <trkpt lat="48.71035" lon="2.04916">
        <ele>151</ele>
        <time>2021-01-17T13:21:24Z</time>
      </trkpt>
      <trkpt lat="48.71039" lon="2.04929">
        <ele>151</ele>
        <time>2021-01-17T13:21:33Z</time>
      </trkpt>
      <trkpt lat="48.71065" lon="2.0497">
        <ele>155</ele>
        <time>2021-01-17T13:22:07Z</time>
      </trkpt>
      <trkpt lat="48.71074" lon="2.04976">
        <ele>156</ele>
        <time>2021-01-17T13:22:15Z</time>
      </trkpt>
      <trkpt lat="48.71081" lon="2.04986">
        <ele>156</ele>
        <time>2021-01-17T13:22:23Z</time>
      </trkpt>
      <trkpt lat="48.71099" lon="2.05019">
        <ele>158</ele>
        <time>2021-01-17T13:22:54Z</time>
      </trkpt>
      <trkpt lat="48.71105" lon="2.05031">
        <ele>158</ele>
        <time>2021-01-17T13:23:01Z</time>
      </trkpt>
      <trkpt lat="48.71117" lon="2.05054">
        <ele>158</ele>
        <time>2021-01-17T13:23:18Z</time>
      </trkpt>
      <trkpt lat="48.71153" lon="2.05102">
        <ele>159</ele>
        <time>2021-01-17T13:23:54Z</time>
      </trkpt>
      <trkpt lat="48.71183" lon="2.05145">
        <ele>159</ele>
        <time>2021-01-17T13:24:28Z</time>
      </trkpt>
      <trkpt lat="48.71195" lon="2.05165">
        <ele>159</ele>
        <time>2021-01-17T13:24:45Z</time>
      </trkpt>
      <trkpt lat="48.71204" lon="2.05175">
        <ele>160</ele>
        <time>2021-01-17T13:25:16Z</time>
      </trkpt>
      <trkpt lat="48.71205" lon="2.05182">
        <ele>160</ele>
        <time>2021-01-17T13:25:20Z</time>
      </trkpt>
      <trkpt lat="48.7121" lon="2.05198">
        <ele>160</ele>
        <time>2021-01-17T13:25:28Z</time>
      </trkpt>
      <trkpt lat="48.71216" lon="2.05209">
        <ele>160</ele>
        <time>2021-01-17T13:25:35Z</time>
      </trkpt>
      <trkpt lat="48.71219" lon="2.05214">
        <ele>160</ele>
        <time>2021-01-17T13:25:38Z</time>
      </trkpt>
      <trkpt lat="48.71227" lon="2.05225">
        <ele>160</ele>
        <time>2021-01-17T13:25:46Z</time>
      </trkpt>
      <trkpt lat="48.71239" lon="2.05244">
        <ele>160</ele>
        <time>2021-01-17T13:26:00Z</time>
      </trkpt>
      <trkpt lat="48.71241" lon="2.05251">
        <ele>160</ele>
        <time>2021-01-17T13:26:04Z</time>
      </trkpt>
      <trkpt lat="48.71249" lon="2.05262">
        <ele>160</ele>
        <time>2021-01-17T13:26:12Z</time>
      </trkpt>
      <trkpt lat="48.71265" lon="2.0529">
        <ele>160</ele>
        <time>2021-01-17T13:26:30Z</time>
      </trkpt>
      <trkpt lat="48.71272" lon="2.05299">
        <ele>160</ele>
        <time>2021-01-17T13:26:37Z</time>
      </trkpt>
      <trkpt lat="48.71283" lon="2.05314">
        <ele>160</ele>
        <time>2021-01-17T13:26:49Z</time>
      </trkpt>
      <trkpt lat="48.71285" lon="2.05321">
        <ele>159</ele>
        <time>2021-01-17T13:26:53Z</time>
      </trkpt>
      <trkpt lat="48.71292" lon="2.05323">
        <ele>160</ele>
        <time>2021-01-17T13:27:02Z</time>
      </trkpt>
      <trkpt lat="48.71297" lon="2.05321">
        <ele>159</ele>
        <time>2021-01-17T13:27:07Z</time>
      </trkpt>
      <trkpt lat="48.71302" lon="2.05318">
        <ele>159</ele>
        <time>2021-01-17T13:27:12Z</time>
      </trkpt>
      <trkpt lat="48.7131" lon="2.0531">
        <ele>160</ele>
        <time>2021-01-17T13:27:19Z</time>
      </trkpt>
      <trkpt lat="48.71315" lon="2.05308">
        <ele>160</ele>
        <time>2021-01-17T13:27:23Z</time>
      </trkpt>
      <trkpt lat="48.71319" lon="2.05308">
        <ele>159</ele>
        <time>2021-01-17T13:27:27Z</time>
      </trkpt>
      <trkpt lat="48.71325" lon="2.05307">
        <ele>159</ele>
        <time>2021-01-17T13:27:31Z</time>
      </trkpt>
      <trkpt lat="48.7133" lon="2.05305">
        <ele>160</ele>
        <time>2021-01-17T13:27:35Z</time>
      </trkpt>
      <trkpt lat="48.71334" lon="2.05301">
        <ele>160</ele>
        <time>2021-01-17T13:27:39Z</time>
      </trkpt>
      <trkpt lat="48.7134" lon="2.05303">
        <ele>159</ele>
        <time>2021-01-17T13:27:43Z</time>
      </trkpt>
      <trkpt lat="48.71345" lon="2.05307">
        <ele>159</ele>
        <time>2021-01-17T13:27:47Z</time>
      </trkpt>
      <trkpt lat="48.71349" lon="2.05309">
        <ele>159</ele>
        <time>2021-01-17T13:27:51Z</time>
      </trkpt>
      <trkpt lat="48.71375" lon="2.05316">
        <ele>158</ele>
        <time>2021-01-17T13:28:13Z</time>
      </trkpt>
      <trkpt lat="48.71393" lon="2.05326">
        <ele>158</ele>
        <time>2021-01-17T13:28:24Z</time>
      </trkpt>
      <trkpt lat="48.71421" lon="2.05331">
        <ele>157</ele>
        <time>2021-01-17T13:28:45Z</time>
      </trkpt>
      <trkpt lat="48.71439" lon="2.05337">
        <ele>157</ele>
        <time>2021-01-17T13:28:58Z</time>
      </trkpt>
      <trkpt lat="48.7145" lon="2.05341">
        <ele>157</ele>
        <time>2021-01-17T13:29:06Z</time>
      </trkpt>
      <trkpt lat="48.71471" lon="2.05343">
        <ele>156</ele>
        <time>2021-01-17T13:29:22Z</time>
      </trkpt>
      <trkpt lat="48.71481" lon="2.05339">
        <ele>156</ele>
        <time>2021-01-17T13:29:30Z</time>
      </trkpt>
      <trkpt lat="48.71508" lon="2.05342">
        <ele>155</ele>
        <time>2021-01-17T13:29:50Z</time>
      </trkpt>
      <trkpt lat="48.71513" lon="2.0534">
        <ele>155</ele>
        <time>2021-01-17T13:29:54Z</time>
      </trkpt>
      <trkpt lat="48.71523" lon="2.05336">
        <ele>154</ele>
        <time>2021-01-17T13:30:01Z</time>
      </trkpt>
      <trkpt lat="48.71533" lon="2.05334">
        <ele>154</ele>
        <time>2021-01-17T13:30:09Z</time>
      </trkpt>
      <trkpt lat="48.71561" lon="2.05325">
        <ele>153</ele>
        <time>2021-01-17T13:30:30Z</time>
      </trkpt>
      <trkpt lat="48.7157" lon="2.05318">
        <ele>153</ele>
        <time>2021-01-17T13:30:37Z</time>
      </trkpt>
      <trkpt lat="48.71596" lon="2.05302">
        <ele>151</ele>
        <time>2021-01-17T13:30:57Z</time>
      </trkpt>
      <trkpt lat="48.71612" lon="2.05284">
        <ele>150</ele>
        <time>2021-01-17T13:31:14Z</time>
      </trkpt>
      <trkpt lat="48.7162" lon="2.05278">
        <ele>149</ele>
        <time>2021-01-17T13:31:21Z</time>
      </trkpt>
      <trkpt lat="48.71638" lon="2.05269">
        <ele>149</ele>
        <time>2021-01-17T13:31:35Z</time>
      </trkpt>
      <trkpt lat="48.71666" lon="2.05256">
        <ele>148</ele>
        <time>2021-01-17T13:31:55Z</time>
      </trkpt>
      <trkpt lat="48.71675" lon="2.0525">
        <ele>149</ele>
        <time>2021-01-17T13:32:04Z</time>
      </trkpt>
      <trkpt lat="48.71698" lon="2.05252">
        <ele>148</ele>
        <time>2021-01-17T13:32:19Z</time>
      </trkpt>
      <trkpt lat="48.71708" lon="2.05248">
        <ele>147</ele>
        <time>2021-01-17T13:32:26Z</time>
      </trkpt>
      <trkpt lat="48.71736" lon="2.05247">
        <ele>147</ele>
        <time>2021-01-17T13:32:50Z</time>
      </trkpt>
      <trkpt lat="48.71746" lon="2.05243">
        <ele>147</ele>
        <time>2021-01-17T13:32:57Z</time>
      </trkpt>
      <trkpt lat="48.71754" lon="2.05242">
        <ele>147</ele>
        <time>2021-01-17T13:33:03Z</time>
      </trkpt>
      <trkpt lat="48.71764" lon="2.05237">
        <ele>147</ele>
        <time>2021-01-17T13:33:10Z</time>
      </trkpt>
      <trkpt lat="48.71772" lon="2.05232">
        <ele>147</ele>
        <time>2021-01-17T13:33:17Z</time>
      </trkpt>
      <trkpt lat="48.71781" lon="2.05232">
        <ele>147</ele>
        <time>2021-01-17T13:33:24Z</time>
      </trkpt>
      <trkpt lat="48.71818" lon="2.05229">
        <ele>150</ele>
        <time>2021-01-17T13:33:55Z</time>
      </trkpt>
      <trkpt lat="48.71827" lon="2.0523">
        <ele>150</ele>
        <time>2021-01-17T13:34:04Z</time>
      </trkpt>
      <trkpt lat="48.71859" lon="2.05246">
        <ele>151</ele>
        <time>2021-01-17T13:34:42Z</time>
      </trkpt>
      <trkpt lat="48.71878" lon="2.05251">
        <ele>151</ele>
        <time>2021-01-17T13:34:56Z</time>
      </trkpt>
      <trkpt lat="48.71888" lon="2.05257">
        <ele>149</ele>
        <time>2021-01-17T13:35:05Z</time>
      </trkpt>
      <trkpt lat="48.71892" lon="2.05258">
        <ele>151</ele>
        <time>2021-01-17T13:35:08Z</time>
      </trkpt>
      <trkpt lat="48.71898" lon="2.05259">
        <ele>151</ele>
        <time>2021-01-17T13:35:12Z</time>
      </trkpt>
      <trkpt lat="48.71931" lon="2.05262">
        <ele>150</ele>
        <time>2021-01-17T13:35:36Z</time>
      </trkpt>
      <trkpt lat="48.71936" lon="2.0526">
        <ele>150</ele>
        <time>2021-01-17T13:35:40Z</time>
      </trkpt>
      <trkpt lat="48.71942" lon="2.05259">
        <ele>150</ele>
        <time>2021-01-17T13:35:44Z</time>
      </trkpt>
      <trkpt lat="48.71956" lon="2.05272">
        <ele>150</ele>
        <time>2021-01-17T13:35:58Z</time>
      </trkpt>
      <trkpt lat="48.71971" lon="2.05294">
        <ele>150</ele>
        <time>2021-01-17T13:36:13Z</time>
      </trkpt>
      <trkpt lat="48.71977" lon="2.05305">
        <ele>148</ele>
        <time>2021-01-17T13:36:20Z</time>
      </trkpt>
      <trkpt lat="48.71989" lon="2.05323">
        <ele>148</ele>
        <time>2021-01-17T13:36:36Z</time>
      </trkpt>
      <trkpt lat="48.72" lon="2.05339">
        <ele>146</ele>
        <time>2021-01-17T13:36:51Z</time>
      </trkpt>
      <trkpt lat="48.72009" lon="2.05348">
        <ele>144</ele>
        <time>2021-01-17T13:37:04Z</time>
      </trkpt>
      <trkpt lat="48.72024" lon="2.0536">
        <ele>142</ele>
        <time>2021-01-17T13:37:21Z</time>
      </trkpt>
      <trkpt lat="48.72032" lon="2.05372">
        <ele>139</ele>
        <time>2021-01-17T13:37:33Z</time>
      </trkpt>
      <trkpt lat="48.7205" lon="2.05385">
        <ele>135</ele>
        <time>2021-01-17T13:38:01Z</time>
      </trkpt>
      <trkpt lat="48.72057" lon="2.05399">
        <ele>132</ele>
        <time>2021-01-17T13:38:19Z</time>
      </trkpt>
      <trkpt lat="48.72066" lon="2.05424">
        <ele>130</ele>
        <time>2021-01-17T13:38:42Z</time>
      </trkpt>
      <trkpt lat="48.72072" lon="2.05431">
        <ele>130</ele>
        <time>2021-01-17T13:38:57Z</time>
      </trkpt>
      <trkpt lat="48.72076" lon="2.05436">
        <ele>129</ele>
        <time>2021-01-17T13:39:02Z</time>
      </trkpt>
      <trkpt lat="48.72081" lon="2.05437">
        <ele>128</ele>
        <time>2021-01-17T13:39:07Z</time>
      </trkpt>
      <trkpt lat="48.7209" lon="2.05443">
        <ele>128</ele>
        <time>2021-01-17T13:39:16Z</time>
      </trkpt>
      <trkpt lat="48.72093" lon="2.05449">
        <ele>128</ele>
        <time>2021-01-17T13:39:20Z</time>
      </trkpt>
      <trkpt lat="48.72097" lon="2.05453">
        <ele>128</ele>
        <time>2021-01-17T13:39:24Z</time>
      </trkpt>
      <trkpt lat="48.72104" lon="2.05453">
        <ele>128</ele>
        <time>2021-01-17T13:39:32Z</time>
      </trkpt>
      <trkpt lat="48.72108" lon="2.0546">
        <ele>127</ele>
        <time>2021-01-17T13:39:43Z</time>
      </trkpt>
      <trkpt lat="48.72114" lon="2.05462">
        <ele>126</ele>
        <time>2021-01-17T13:39:51Z</time>
      </trkpt>
      <trkpt lat="48.72118" lon="2.05466">
        <ele>126</ele>
        <time>2021-01-17T13:39:55Z</time>
      </trkpt>
      <trkpt lat="48.7213" lon="2.05471">
        <ele>124</ele>
        <time>2021-01-17T13:40:06Z</time>
      </trkpt>
      <trkpt lat="48.72134" lon="2.05474">
        <ele>124</ele>
        <time>2021-01-17T13:40:10Z</time>
      </trkpt>
      <trkpt lat="48.72136" lon="2.05488">
        <ele>124</ele>
        <time>2021-01-17T13:40:46Z</time>
      </trkpt>
      <trkpt lat="48.72134" lon="2.05493">
        <ele>124</ele>
        <time>2021-01-17T13:41:58Z</time>
      </trkpt>
      <trkpt lat="48.72144" lon="2.05497">
        <ele>126</ele>
        <time>2021-01-17T13:42:23Z</time>
      </trkpt>
      <trkpt lat="48.72149" lon="2.05488">
        <ele>122</ele>
        <time>2021-01-17T13:42:59Z</time>
      </trkpt>
      <trkpt lat="48.72154" lon="2.05486">
        <ele>123</ele>
        <time>2021-01-17T13:43:05Z</time>
      </trkpt>
      <trkpt lat="48.72159" lon="2.05484">
        <ele>122</ele>
        <time>2021-01-17T13:43:11Z</time>
      </trkpt>
      <trkpt lat="48.72163" lon="2.05479">
        <ele>121</ele>
        <time>2021-01-17T13:43:16Z</time>
      </trkpt>
      <trkpt lat="48.72167" lon="2.05476">
        <ele>121</ele>
        <time>2021-01-17T13:43:20Z</time>
      </trkpt>
      <trkpt lat="48.72173" lon="2.05493">
        <ele>120</ele>
        <time>2021-01-17T13:43:32Z</time>
      </trkpt>
      <trkpt lat="48.72174" lon="2.05508">
        <ele>118</ele>
        <time>2021-01-17T13:43:40Z</time>
      </trkpt>
      <trkpt lat="48.72176" lon="2.05523">
        <ele>116</ele>
        <time>2021-01-17T13:44:00Z</time>
      </trkpt>
      <trkpt lat="48.7218" lon="2.05536">
        <ele>116</ele>
        <time>2021-01-17T13:44:25Z</time>
      </trkpt>
      <trkpt lat="48.7218" lon="2.05535">
        <ele>115</ele>
        <time>2021-01-17T13:45:10Z</time>
      </trkpt>
      <trkpt lat="48.7218" lon="2.05527">
        <ele>113</ele>
        <time>2021-01-17T13:45:20Z</time>
      </trkpt>
      <trkpt lat="48.72185" lon="2.05522">
        <ele>113</ele>
        <time>2021-01-17T13:45:31Z</time>
      </trkpt>
      <trkpt lat="48.72189" lon="2.05519">
        <ele>113</ele>
        <time>2021-01-17T13:45:34Z</time>
      </trkpt>
      <trkpt lat="48.72204" lon="2.05495">
        <ele>110</ele>
        <time>2021-01-17T13:45:49Z</time>
      </trkpt>
      <trkpt lat="48.7221" lon="2.05493">
        <ele>110</ele>
        <time>2021-01-17T13:45:59Z</time>
      </trkpt>
      <trkpt lat="48.72213" lon="2.05503">
        <ele>111</ele>
        <time>2021-01-17T13:46:29Z</time>
      </trkpt>
      <trkpt lat="48.72209" lon="2.05509">
        <ele>111</ele>
        <time>2021-01-17T13:46:41Z</time>
      </trkpt>
      <trkpt lat="48.72207" lon="2.05516">
        <ele>112</ele>
        <time>2021-01-17T13:46:53Z</time>
      </trkpt>
      <trkpt lat="48.72198" lon="2.05521">
        <ele>113</ele>
        <time>2021-01-17T13:47:29Z</time>
      </trkpt>
      <trkpt lat="48.72196" lon="2.05527">
        <ele>114</ele>
        <time>2021-01-17T13:47:33Z</time>
      </trkpt>
      <trkpt lat="48.72187" lon="2.05539">
        <ele>115</ele>
        <time>2021-01-17T13:47:50Z</time>
      </trkpt>
      <trkpt lat="48.72181" lon="2.05538">
        <ele>117</ele>
        <time>2021-01-17T13:47:56Z</time>
      </trkpt>
      <trkpt lat="48.72176" lon="2.05535">
        <ele>118</ele>
        <time>2021-01-17T13:48:00Z</time>
      </trkpt>
      <trkpt lat="48.72166" lon="2.05525">
        <ele>119</ele>
        <time>2021-01-17T13:48:12Z</time>
      </trkpt>
      <trkpt lat="48.72167" lon="2.0551">
        <ele>118</ele>
        <time>2021-01-17T13:48:24Z</time>
      </trkpt>
      <trkpt lat="48.72167" lon="2.05494">
        <ele>121</ele>
        <time>2021-01-17T13:48:42Z</time>
      </trkpt>
      <trkpt lat="48.72154" lon="2.05491">
        <ele>125</ele>
        <time>2021-01-17T13:49:22Z</time>
      </trkpt>
      <trkpt lat="48.72139" lon="2.05489">
        <ele>129</ele>
        <time>2021-01-17T13:49:45Z</time>
      </trkpt>
      <trkpt lat="48.72127" lon="2.05486">
        <ele>130</ele>
        <time>2021-01-17T13:49:57Z</time>
      </trkpt>
      <trkpt lat="48.72114" lon="2.05486">
        <ele>129</ele>
        <time>2021-01-17T13:50:15Z</time>
      </trkpt>
      <trkpt lat="48.72106" lon="2.05477">
        <ele>129</ele>
        <time>2021-01-17T13:50:27Z</time>
      </trkpt>
      <trkpt lat="48.72097" lon="2.05489">
        <ele>128</ele>
        <time>2021-01-17T13:50:45Z</time>
      </trkpt>
      <trkpt lat="48.7209" lon="2.0552">
        <ele>125</ele>
        <time>2021-01-17T13:51:09Z</time>
      </trkpt>
      <trkpt lat="48.72084" lon="2.0553">
        <ele>123</ele>
        <time>2021-01-17T13:51:17Z</time>
      </trkpt>
      <trkpt lat="48.72082" lon="2.05545">
        <ele>122</ele>
        <time>2021-01-17T13:51:26Z</time>
      </trkpt>
      <trkpt lat="48.72078" lon="2.05557">
        <ele>122</ele>
        <time>2021-01-17T13:51:35Z</time>
      </trkpt>
      <trkpt lat="48.72071" lon="2.05567">
        <ele>120</ele>
        <time>2021-01-17T13:51:42Z</time>
      </trkpt>
      <trkpt lat="48.72055" lon="2.05579">
        <ele>118</ele>
        <time>2021-01-17T13:51:59Z</time>
      </trkpt>
      <trkpt lat="48.72048" lon="2.05589">
        <ele>118</ele>
        <time>2021-01-17T13:52:08Z</time>
      </trkpt>
      <trkpt lat="48.72039" lon="2.05596">
        <ele>118</ele>
        <time>2021-01-17T13:52:16Z</time>
      </trkpt>
      <trkpt lat="48.72033" lon="2.05606">
        <ele>119</ele>
        <time>2021-01-17T13:52:24Z</time>
      </trkpt>
      <trkpt lat="48.72024" lon="2.0561">
        <ele>119</ele>
        <time>2021-01-17T13:52:41Z</time>
      </trkpt>
      <trkpt lat="48.72" lon="2.05634">
        <ele>122</ele>
        <time>2021-01-17T13:53:15Z</time>
      </trkpt>
      <trkpt lat="48.71978" lon="2.05655">
        <ele>127</ele>
        <time>2021-01-17T13:53:49Z</time>
      </trkpt>
      <trkpt lat="48.71952" lon="2.05676">
        <ele>131</ele>
        <time>2021-01-17T13:54:27Z</time>
      </trkpt>
      <trkpt lat="48.71935" lon="2.05685">
        <ele>132</ele>
        <time>2021-01-17T13:54:50Z</time>
      </trkpt>
      <trkpt lat="48.7193" lon="2.0569">
        <ele>132</ele>
        <time>2021-01-17T13:54:58Z</time>
      </trkpt>
      <trkpt lat="48.71928" lon="2.05696">
        <ele>131</ele>
        <time>2021-01-17T13:55:10Z</time>
      </trkpt>
      <trkpt lat="48.71941" lon="2.05696">
        <ele>129</ele>
        <time>2021-01-17T13:55:40Z</time>
      </trkpt>
      <trkpt lat="48.71946" lon="2.05694">
        <ele>128</ele>
        <time>2021-01-17T13:55:58Z</time>
      </trkpt>
      <trkpt lat="48.71955" lon="2.05707">
        <ele>123</ele>
        <time>2021-01-17T13:56:28Z</time>
      </trkpt>
      <trkpt lat="48.71961" lon="2.05712">
        <ele>121</ele>
        <time>2021-01-17T13:56:40Z</time>
      </trkpt>
      <trkpt lat="48.71967" lon="2.05716">
        <ele>121</ele>
        <time>2021-01-17T13:56:52Z</time>
      </trkpt>
      <trkpt lat="48.71967" lon="2.05725">
        <ele>118</ele>
        <time>2021-01-17T13:57:10Z</time>
      </trkpt>
      <trkpt lat="48.71965" lon="2.05731">
        <ele>118</ele>
        <time>2021-01-17T13:57:16Z</time>
      </trkpt>
      <trkpt lat="48.71963" lon="2.05738">
        <ele>117</ele>
        <time>2021-01-17T13:57:20Z</time>
      </trkpt>
      <trkpt lat="48.71966" lon="2.05763">
        <ele>114</ele>
        <time>2021-01-17T13:57:41Z</time>
      </trkpt>
      <trkpt lat="48.7197" lon="2.05779">
        <ele>112</ele>
        <time>2021-01-17T13:57:56Z</time>
      </trkpt>
      <trkpt lat="48.71991" lon="2.05832">
        <ele>108</ele>
        <time>2021-01-17T13:58:33Z</time>
      </trkpt>
      <trkpt lat="48.71996" lon="2.05844">
        <ele>107</ele>
        <time>2021-01-17T13:58:40Z</time>
      </trkpt>
      <trkpt lat="48.71997" lon="2.05859">
        <ele>106</ele>
        <time>2021-01-17T13:58:49Z</time>
      </trkpt>
      <trkpt lat="48.72014" lon="2.05922">
        <ele>103</ele>
        <time>2021-01-17T13:59:23Z</time>
      </trkpt>
      <trkpt lat="48.72025" lon="2.05953">
        <ele>102</ele>
        <time>2021-01-17T13:59:44Z</time>
      </trkpt>
      <trkpt lat="48.72027" lon="2.05967">
        <ele>101</ele>
        <time>2021-01-17T13:59:53Z</time>
      </trkpt>
      <trkpt lat="48.7204" lon="2.05999">
        <ele>97</ele>
        <time>2021-01-17T14:00:18Z</time>
      </trkpt>
      <trkpt lat="48.72042" lon="2.06011">
        <ele>96</ele>
        <time>2021-01-17T14:00:27Z</time>
      </trkpt>
      <trkpt lat="48.72042" lon="2.06027">
        <ele>96</ele>
        <time>2021-01-17T14:00:35Z</time>
      </trkpt>
      <trkpt lat="48.72043" lon="2.06041">
        <ele>95</ele>
        <time>2021-01-17T14:00:43Z</time>
      </trkpt>
      <trkpt lat="48.72048" lon="2.06055">
        <ele>94</ele>
        <time>2021-01-17T14:00:52Z</time>
      </trkpt>
      <trkpt lat="48.72054" lon="2.06066">
        <ele>93</ele>
        <time>2021-01-17T14:01:00Z</time>
      </trkpt>
      <trkpt lat="48.72058" lon="2.06072">
        <ele>93</ele>
        <time>2021-01-17T14:01:04Z</time>
      </trkpt>
      <trkpt lat="48.72065" lon="2.06088">
        <ele>92</ele>
        <time>2021-01-17T14:01:16Z</time>
      </trkpt>
      <trkpt lat="48.72065" lon="2.06096">
        <ele>92</ele>
        <time>2021-01-17T14:01:20Z</time>
      </trkpt>
      <trkpt lat="48.72069" lon="2.0611">
        <ele>92</ele>
        <time>2021-01-17T14:01:27Z</time>
      </trkpt>
      <trkpt lat="48.72091" lon="2.06163">
        <ele>90</ele>
        <time>2021-01-17T14:02:02Z</time>
      </trkpt>
      <trkpt lat="48.72096" lon="2.06177">
        <ele>89</ele>
        <time>2021-01-17T14:02:10Z</time>
      </trkpt>
      <trkpt lat="48.72099" lon="2.06191">
        <ele>89</ele>
        <time>2021-01-17T14:02:19Z</time>
      </trkpt>
      <trkpt lat="48.721" lon="2.06198">
        <ele>87</ele>
        <time>2021-01-17T14:02:24Z</time>
      </trkpt>
      <trkpt lat="48.72103" lon="2.06204">
        <ele>88</ele>
        <time>2021-01-17T14:02:29Z</time>
      </trkpt>
      <trkpt lat="48.72105" lon="2.06211">
        <ele>88</ele>
        <time>2021-01-17T14:02:34Z</time>
      </trkpt>
      <trkpt lat="48.72112" lon="2.06223">
        <ele>87</ele>
        <time>2021-01-17T14:02:41Z</time>
      </trkpt>
      <trkpt lat="48.72141" lon="2.06285">
        <ele>86</ele>
        <time>2021-01-17T14:03:18Z</time>
      </trkpt>
      <trkpt lat="48.72148" lon="2.06294">
        <ele>86</ele>
        <time>2021-01-17T14:03:25Z</time>
      </trkpt>
      <trkpt lat="48.7216" lon="2.06315">
        <ele>86</ele>
        <time>2021-01-17T14:03:42Z</time>
      </trkpt>
      <trkpt lat="48.7217" lon="2.06334">
        <ele>86</ele>
        <time>2021-01-17T14:03:55Z</time>
      </trkpt>
      <trkpt lat="48.72178" lon="2.06354">
        <ele>86</ele>
        <time>2021-01-17T14:04:07Z</time>
      </trkpt>
      <trkpt lat="48.72196" lon="2.06374">
        <ele>87</ele>
        <time>2021-01-17T14:04:28Z</time>
      </trkpt>
      <trkpt lat="48.722" lon="2.06381">
        <ele>87</ele>
        <time>2021-01-17T14:04:35Z</time>
      </trkpt>
      <trkpt lat="48.72205" lon="2.0641">
        <ele>90</ele>
        <time>2021-01-17T14:04:53Z</time>
      </trkpt>
      <trkpt lat="48.72202" lon="2.06438">
        <ele>90</ele>
        <time>2021-01-17T14:05:09Z</time>
      </trkpt>
      <trkpt lat="48.72211" lon="2.06477">
        <ele>94</ele>
        <time>2021-01-17T14:05:41Z</time>
      </trkpt>
      <trkpt lat="48.72211" lon="2.06492">
        <ele>96</ele>
        <time>2021-01-17T14:05:51Z</time>
      </trkpt>
      <trkpt lat="48.72208" lon="2.06505">
        <ele>97</ele>
        <time>2021-01-17T14:06:01Z</time>
      </trkpt>
      <trkpt lat="48.72214" lon="2.06538">
        <ele>101</ele>
        <time>2021-01-17T14:06:23Z</time>
      </trkpt>
      <trkpt lat="48.72213" lon="2.06577">
        <ele>103</ele>
        <time>2021-01-17T14:06:51Z</time>
      </trkpt>
      <trkpt lat="48.72221" lon="2.06613">
        <ele>108</ele>
        <time>2021-01-17T14:07:18Z</time>
      </trkpt>
      <trkpt lat="48.72231" lon="2.0662">
        <ele>110</ele>
        <time>2021-01-17T14:07:28Z</time>
      </trkpt>
      <trkpt lat="48.72246" lon="2.06637">
        <ele>112</ele>
        <time>2021-01-17T14:07:46Z</time>
      </trkpt>
      <trkpt lat="48.72255" lon="2.06641">
        <ele>113</ele>
        <time>2021-01-17T14:07:53Z</time>
      </trkpt>
      <trkpt lat="48.72262" lon="2.06653">
        <ele>114</ele>
        <time>2021-01-17T14:08:02Z</time>
      </trkpt>
      <trkpt lat="48.7228" lon="2.06662">
        <ele>116</ele>
        <time>2021-01-17T14:08:17Z</time>
      </trkpt>
      <trkpt lat="48.72307" lon="2.06692">
        <ele>123</ele>
        <time>2021-01-17T14:08:52Z</time>
      </trkpt>
      <trkpt lat="48.72323" lon="2.06713">
        <ele>128</ele>
        <time>2021-01-17T14:09:16Z</time>
      </trkpt>
      <trkpt lat="48.72325" lon="2.06723">
        <ele>129</ele>
        <time>2021-01-17T14:11:02Z</time>
      </trkpt>
      <trkpt lat="48.72339" lon="2.0673">
        <ele>130</ele>
        <time>2021-01-17T14:11:19Z</time>
      </trkpt>
      <trkpt lat="48.72345" lon="2.06743">
        <ele>132</ele>
        <time>2021-01-17T14:11:27Z</time>
      </trkpt>
      <trkpt lat="48.72351" lon="2.0677">
        <ele>134</ele>
        <time>2021-01-17T14:11:43Z</time>
      </trkpt>
      <trkpt lat="48.72357" lon="2.06779">
        <ele>136</ele>
        <time>2021-01-17T14:11:52Z</time>
      </trkpt>
      <trkpt lat="48.7236" lon="2.06795">
        <ele>138</ele>
        <time>2021-01-17T14:12:04Z</time>
      </trkpt>
      <trkpt lat="48.72366" lon="2.06806">
        <ele>140</ele>
        <time>2021-01-17T14:12:13Z</time>
      </trkpt>
      <trkpt lat="48.72374" lon="2.0681">
        <ele>141</ele>
        <time>2021-01-17T14:12:20Z</time>
      </trkpt>
      <trkpt lat="48.72399" lon="2.06837">
        <ele>147</ele>
        <time>2021-01-17T14:12:55Z</time>
      </trkpt>
      <trkpt lat="48.72431" lon="2.06872">
        <ele>149</ele>
        <time>2021-01-17T14:13:31Z</time>
      </trkpt>
      <trkpt lat="48.7244" lon="2.06876">
        <ele>150</ele>
        <time>2021-01-17T14:13:39Z</time>
      </trkpt>
      <trkpt lat="48.72449" lon="2.06893">
        <ele>151</ele>
        <time>2021-01-17T14:13:53Z</time>
      </trkpt>
      <trkpt lat="48.72458" lon="2.06901">
        <ele>152</ele>
        <time>2021-01-17T14:14:02Z</time>
      </trkpt>
      <trkpt lat="48.72466" lon="2.06907">
        <ele>153</ele>
        <time>2021-01-17T14:14:15Z</time>
      </trkpt>
      <trkpt lat="48.72471" lon="2.06911">
        <ele>154</ele>
        <time>2021-01-17T14:14:27Z</time>
      </trkpt>
      <trkpt lat="48.72471" lon="2.06912">
        <ele>154</ele>
        <time>2021-01-17T14:17:34Z</time>
      </trkpt>
      <trkpt lat="48.72475" lon="2.0692">
        <ele>154</ele>
        <time>2021-01-17T14:18:51Z</time>
      </trkpt>
      <trkpt lat="48.72476" lon="2.06935">
        <ele>154</ele>
        <time>2021-01-17T14:19:00Z</time>
      </trkpt>
      <trkpt lat="48.72476" lon="2.06943">
        <ele>154</ele>
        <time>2021-01-17T14:19:05Z</time>
      </trkpt>
      <trkpt lat="48.72476" lon="2.0695">
        <ele>154</ele>
        <time>2021-01-17T14:19:13Z</time>
      </trkpt>
      <trkpt lat="48.72478" lon="2.06957">
        <ele>154</ele>
        <time>2021-01-17T14:19:18Z</time>
      </trkpt>
      <trkpt lat="48.72484" lon="2.06971">
        <ele>154</ele>
        <time>2021-01-17T14:19:30Z</time>
      </trkpt>
      <trkpt lat="48.72488" lon="2.06977">
        <ele>154</ele>
        <time>2021-01-17T14:19:35Z</time>
      </trkpt>
      <trkpt lat="48.72491" lon="2.06985">
        <ele>154</ele>
        <time>2021-01-17T14:19:43Z</time>
      </trkpt>
      <trkpt lat="48.72498" lon="2.07002">
        <ele>154</ele>
        <time>2021-01-17T14:20:00Z</time>
      </trkpt>
      <trkpt lat="48.72502" lon="2.07007">
        <ele>154</ele>
        <time>2021-01-17T14:20:05Z</time>
      </trkpt>
      <trkpt lat="48.72508" lon="2.0701">
        <ele>154</ele>
        <time>2021-01-17T14:20:14Z</time>
      </trkpt>
      <trkpt lat="48.72514" lon="2.07022">
        <ele>154</ele>
        <time>2021-01-17T14:20:25Z</time>
      </trkpt>
      <trkpt lat="48.72529" lon="2.0703">
        <ele>155</ele>
        <time>2021-01-17T14:20:42Z</time>
      </trkpt>
      <trkpt lat="48.72542" lon="2.07045">
        <ele>155</ele>
        <time>2021-01-17T14:21:03Z</time>
      </trkpt>
      <trkpt lat="48.72547" lon="2.07048">
        <ele>155</ele>
        <time>2021-01-17T14:21:08Z</time>
      </trkpt>
      <trkpt lat="48.72557" lon="2.07047">
        <ele>155</ele>
        <time>2021-01-17T14:21:26Z</time>
      </trkpt>
      <trkpt lat="48.72561" lon="2.07043">
        <ele>155</ele>
        <time>2021-01-17T14:22:02Z</time>
      </trkpt>
      <trkpt lat="48.7257" lon="2.07034">
        <ele>156</ele>
        <time>2021-01-17T14:22:12Z</time>
      </trkpt>
      <trkpt lat="48.72583" lon="2.07034">
        <ele>156</ele>
        <time>2021-01-17T14:22:26Z</time>
      </trkpt>
      <trkpt lat="48.72587" lon="2.07035">
        <ele>156</ele>
        <time>2021-01-17T14:22:31Z</time>
      </trkpt>
      <trkpt lat="48.72611" lon="2.0705">
        <ele>157</ele>
        <time>2021-01-17T14:22:58Z</time>
      </trkpt>
      <trkpt lat="48.72635" lon="2.07066">
        <ele>158</ele>
        <time>2021-01-17T14:23:24Z</time>
      </trkpt>
      <trkpt lat="48.72643" lon="2.07075">
        <ele>158</ele>
        <time>2021-01-17T14:23:34Z</time>
      </trkpt>
      <trkpt lat="48.72648" lon="2.07078">
        <ele>158</ele>
        <time>2021-01-17T14:23:39Z</time>
      </trkpt>
      <trkpt lat="48.72686" lon="2.071">
        <ele>160</ele>
        <time>2021-01-17T14:24:13Z</time>
      </trkpt>
      <trkpt lat="48.72724" lon="2.07127">
        <ele>161</ele>
        <time>2021-01-17T14:24:45Z</time>
      </trkpt>
      <trkpt lat="48.72743" lon="2.0714">
        <ele>162</ele>
        <time>2021-01-17T14:25:01Z</time>
      </trkpt>
      <trkpt lat="48.72746" lon="2.07145">
        <ele>162</ele>
        <time>2021-01-17T14:25:05Z</time>
      </trkpt>
      <trkpt lat="48.72759" lon="2.07156">
        <ele>163</ele>
        <time>2021-01-17T14:25:17Z</time>
      </trkpt>
      <trkpt lat="48.72762" lon="2.07162">
        <ele>163</ele>
        <time>2021-01-17T14:25:22Z</time>
      </trkpt>
      <trkpt lat="48.72763" lon="2.0717">
        <ele>163</ele>
        <time>2021-01-17T14:25:27Z</time>
      </trkpt>
      <trkpt lat="48.72761" lon="2.07178">
        <ele>164</ele>
        <time>2021-01-17T14:25:31Z</time>
      </trkpt>
      <trkpt lat="48.72758" lon="2.07184">
        <ele>164</ele>
        <time>2021-01-17T14:25:36Z</time>
      </trkpt>
      <trkpt lat="48.72746" lon="2.07234">
        <ele>164</ele>
        <time>2021-01-17T14:26:09Z</time>
      </trkpt>
      <trkpt lat="48.72737" lon="2.07279">
        <ele>164</ele>
        <time>2021-01-17T14:26:42Z</time>
      </trkpt>
      <trkpt lat="48.72729" lon="2.07301">
        <ele>164</ele>
        <time>2021-01-17T14:27:00Z</time>
      </trkpt>
      <trkpt lat="48.72728" lon="2.07308">
        <ele>164</ele>
        <time>2021-01-17T14:27:05Z</time>
      </trkpt>
      <trkpt lat="48.72725" lon="2.07314">
        <ele>164</ele>
        <time>2021-01-17T14:27:10Z</time>
      </trkpt>
      <trkpt lat="48.72723" lon="2.07322">
        <ele>164</ele>
        <time>2021-01-17T14:27:15Z</time>
      </trkpt>
      <trkpt lat="48.72705" lon="2.0738">
        <ele>165</ele>
        <time>2021-01-17T14:27:56Z</time>
      </trkpt>
      <trkpt lat="48.72701" lon="2.07394">
        <ele>165</ele>
        <time>2021-01-17T14:28:05Z</time>
      </trkpt>
      <trkpt lat="48.72701" lon="2.07402">
        <ele>165</ele>
        <time>2021-01-17T14:28:10Z</time>
      </trkpt>
      <trkpt lat="48.72694" lon="2.07429">
        <ele>165</ele>
        <time>2021-01-17T14:28:29Z</time>
      </trkpt>
      <trkpt lat="48.7269" lon="2.07437">
        <ele>165</ele>
        <time>2021-01-17T14:28:33Z</time>
      </trkpt>
      <trkpt lat="48.72678" lon="2.0747">
        <ele>165</ele>
        <time>2021-01-17T14:28:53Z</time>
      </trkpt>
      <trkpt lat="48.72677" lon="2.07478">
        <ele>165</ele>
        <time>2021-01-17T14:28:58Z</time>
      </trkpt>
      <trkpt lat="48.72661" lon="2.07515">
        <ele>165</ele>
        <time>2021-01-17T14:29:21Z</time>
      </trkpt>
      <trkpt lat="48.72652" lon="2.0752">
        <ele>165</ele>
        <time>2021-01-17T14:29:29Z</time>
      </trkpt>
      <trkpt lat="48.72643" lon="2.07517">
        <ele>165</ele>
        <time>2021-01-17T14:29:36Z</time>
      </trkpt>
      <trkpt lat="48.72638" lon="2.07516">
        <ele>165</ele>
        <time>2021-01-17T14:29:40Z</time>
      </trkpt>
      <trkpt lat="48.72634" lon="2.07519">
        <ele>164</ele>
        <time>2021-01-17T14:29:44Z</time>
      </trkpt>
      <trkpt lat="48.72629" lon="2.07524">
        <ele>165</ele>
        <time>2021-01-17T14:29:49Z</time>
      </trkpt>
      <trkpt lat="48.72622" lon="2.07537">
        <ele>165</ele>
        <time>2021-01-17T14:30:01Z</time>
      </trkpt>
      <trkpt lat="48.72622" lon="2.07538">
        <ele>165</ele>
        <time>2021-01-17T14:31:09Z</time>
      </trkpt>
      <trkpt lat="48.72625" lon="2.07529">
        <ele>165</ele>
        <time>2021-01-17T14:31:21Z</time>
      </trkpt>
      <trkpt lat="48.72628" lon="2.07523">
        <ele>165</ele>
        <time>2021-01-17T14:31:26Z</time>
      </trkpt>
      <trkpt lat="48.7263" lon="2.07515">
        <ele>165</ele>
        <time>2021-01-17T14:31:34Z</time>
      </trkpt>
      <trkpt lat="48.72629" lon="2.07516">
        <ele>165</ele>
        <time>2021-01-17T14:31:53Z</time>
      </trkpt>
      <trkpt lat="48.72623" lon="2.07527">
        <ele>165</ele>
        <time>2021-01-17T14:32:03Z</time>
      </trkpt>
      <trkpt lat="48.72611" lon="2.07553">
        <ele>164</ele>
        <time>2021-01-17T14:32:19Z</time>
      </trkpt>
      <trkpt lat="48.72607" lon="2.07558">
        <ele>164</ele>
        <time>2021-01-17T14:32:23Z</time>
      </trkpt>
      <trkpt lat="48.72602" lon="2.07559">
        <ele>164</ele>
        <time>2021-01-17T14:32:27Z</time>
      </trkpt>
      <trkpt lat="48.72564" lon="2.07527">
        <ele>162</ele>
        <time>2021-01-17T14:32:59Z</time>
      </trkpt>
      <trkpt lat="48.72544" lon="2.07513">
        <ele>162</ele>
        <time>2021-01-17T14:33:15Z</time>
      </trkpt>
      <trkpt lat="48.72541" lon="2.07506">
        <ele>162</ele>
        <time>2021-01-17T14:33:49Z</time>
      </trkpt>
      <trkpt lat="48.72537" lon="2.07499">
        <ele>161</ele>
        <time>2021-01-17T14:33:54Z</time>
      </trkpt>
      <trkpt lat="48.72532" lon="2.07498">
        <ele>161</ele>
        <time>2021-01-17T14:33:58Z</time>
      </trkpt>
      <trkpt lat="48.72525" lon="2.07486">
        <ele>161</ele>
        <time>2021-01-17T14:34:06Z</time>
      </trkpt>
      <trkpt lat="48.72517" lon="2.07476">
        <ele>160</ele>
        <time>2021-01-17T14:34:14Z</time>
      </trkpt>
      <trkpt lat="48.72513" lon="2.07474">
        <ele>160</ele>
        <time>2021-01-17T14:34:18Z</time>
      </trkpt>
      <trkpt lat="48.72504" lon="2.07467">
        <ele>159</ele>
        <time>2021-01-17T14:34:26Z</time>
      </trkpt>
      <trkpt lat="48.72488" lon="2.07458">
        <ele>158</ele>
        <time>2021-01-17T14:34:38Z</time>
      </trkpt>
      <trkpt lat="48.7247" lon="2.07444">
        <ele>157</ele>
        <time>2021-01-17T14:34:53Z</time>
      </trkpt>
      <trkpt lat="48.72467" lon="2.07439">
        <ele>157</ele>
        <time>2021-01-17T14:34:58Z</time>
      </trkpt>
      <trkpt lat="48.72462" lon="2.07435">
        <ele>157</ele>
        <time>2021-01-17T14:35:03Z</time>
      </trkpt>
      <trkpt lat="48.72459" lon="2.07429">
        <ele>157</ele>
        <time>2021-01-17T14:35:07Z</time>
      </trkpt>
      <trkpt lat="48.72425" lon="2.07406">
        <ele>156</ele>
        <time>2021-01-17T14:35:37Z</time>
      </trkpt>
      <trkpt lat="48.7242" lon="2.07403">
        <ele>156</ele>
        <time>2021-01-17T14:35:41Z</time>
      </trkpt>
      <trkpt lat="48.72412" lon="2.07394">
        <ele>155</ele>
        <time>2021-01-17T14:35:49Z</time>
      </trkpt>
      <trkpt lat="48.72408" lon="2.07388">
        <ele>155</ele>
        <time>2021-01-17T14:35:54Z</time>
      </trkpt>
      <trkpt lat="48.72402" lon="2.07372">
        <ele>155</ele>
        <time>2021-01-17T14:36:05Z</time>
      </trkpt>
      <trkpt lat="48.72402" lon="2.07365">
        <ele>155</ele>
        <time>2021-01-17T14:36:08Z</time>
      </trkpt>
      <trkpt lat="48.72398" lon="2.07352">
        <ele>155</ele>
        <time>2021-01-17T14:36:18Z</time>
      </trkpt>
      <trkpt lat="48.72397" lon="2.07328">
        <ele>155</ele>
        <time>2021-01-17T14:36:32Z</time>
      </trkpt>
      <trkpt lat="48.72395" lon="2.07317">
        <ele>155</ele>
        <time>2021-01-17T14:36:39Z</time>
      </trkpt>
      <trkpt lat="48.72398" lon="2.0731">
        <ele>155</ele>
        <time>2021-01-17T14:36:49Z</time>
      </trkpt>
      <trkpt lat="48.72403" lon="2.07298">
        <ele>153</ele>
        <time>2021-01-17T14:40:03Z</time>
      </trkpt>
      <trkpt lat="48.72406" lon="2.07284">
        <ele>153</ele>
        <time>2021-01-17T14:42:54Z</time>
      </trkpt>
      <trkpt lat="48.72389" lon="2.07284">
        <ele>153</ele>
        <time>2021-01-17T14:44:02Z</time>
      </trkpt>
      <trkpt lat="48.72373" lon="2.07268">
        <ele>153</ele>
        <time>2021-01-17T14:44:19Z</time>
      </trkpt>
      <trkpt lat="48.72363" lon="2.07265">
        <ele>152</ele>
        <time>2021-01-17T14:44:26Z</time>
      </trkpt>
      <trkpt lat="48.72333" lon="2.07242">
        <ele>152</ele>
        <time>2021-01-17T14:44:53Z</time>
      </trkpt>
      <trkpt lat="48.72328" lon="2.0724">
        <ele>153</ele>
        <time>2021-01-17T14:44:58Z</time>
      </trkpt>
      <trkpt lat="48.72324" lon="2.07237">
        <ele>153</ele>
        <time>2021-01-17T14:45:02Z</time>
      </trkpt>
      <trkpt lat="48.7232" lon="2.07232">
        <ele>153</ele>
        <time>2021-01-17T14:45:06Z</time>
      </trkpt>
      <trkpt lat="48.72316" lon="2.07226">
        <ele>153</ele>
        <time>2021-01-17T14:45:10Z</time>
      </trkpt>
      <trkpt lat="48.72314" lon="2.0722">
        <ele>153</ele>
        <time>2021-01-17T14:45:13Z</time>
      </trkpt>
      <trkpt lat="48.72311" lon="2.07215">
        <ele>153</ele>
        <time>2021-01-17T14:45:17Z</time>
      </trkpt>
      <trkpt lat="48.72302" lon="2.07208">
        <ele>153</ele>
        <time>2021-01-17T14:45:26Z</time>
      </trkpt>
      <trkpt lat="48.72277" lon="2.072">
        <ele>153</ele>
        <time>2021-01-17T14:45:46Z</time>
      </trkpt>
      <trkpt lat="48.7225" lon="2.07179">
        <ele>154</ele>
        <time>2021-01-17T14:46:12Z</time>
      </trkpt>
      <trkpt lat="48.72241" lon="2.07175">
        <ele>155</ele>
        <time>2021-01-17T14:46:22Z</time>
      </trkpt>
      <trkpt lat="48.72237" lon="2.07173">
        <ele>155</ele>
        <time>2021-01-17T14:46:26Z</time>
      </trkpt>
      <trkpt lat="48.72221" lon="2.07173">
        <ele>155</ele>
        <time>2021-01-17T14:46:38Z</time>
      </trkpt>
      <trkpt lat="48.72216" lon="2.07173">
        <ele>155</ele>
        <time>2021-01-17T14:46:42Z</time>
      </trkpt>
      <trkpt lat="48.72206" lon="2.07172">
        <ele>155</ele>
        <time>2021-01-17T14:46:50Z</time>
      </trkpt>
      <trkpt lat="48.72201" lon="2.07172">
        <ele>155</ele>
        <time>2021-01-17T14:46:54Z</time>
      </trkpt>
      <trkpt lat="48.72196" lon="2.07172">
        <ele>155</ele>
        <time>2021-01-17T14:46:58Z</time>
      </trkpt>
      <trkpt lat="48.72191" lon="2.07171">
        <ele>155</ele>
        <time>2021-01-17T14:47:02Z</time>
      </trkpt>
      <trkpt lat="48.72186" lon="2.07169">
        <ele>155</ele>
        <time>2021-01-17T14:47:06Z</time>
      </trkpt>
      <trkpt lat="48.72181" lon="2.07168">
        <ele>155</ele>
        <time>2021-01-17T14:47:10Z</time>
      </trkpt>
      <trkpt lat="48.72176" lon="2.07164">
        <ele>155</ele>
        <time>2021-01-17T14:47:14Z</time>
      </trkpt>
      <trkpt lat="48.72172" lon="2.07163">
        <ele>155</ele>
        <time>2021-01-17T14:47:18Z</time>
      </trkpt>
      <trkpt lat="48.72143" lon="2.07149">
        <ele>156</ele>
        <time>2021-01-17T14:47:42Z</time>
      </trkpt>
      <trkpt lat="48.72134" lon="2.07143">
        <ele>155</ele>
        <time>2021-01-17T14:47:50Z</time>
      </trkpt>
      <trkpt lat="48.72129" lon="2.0714">
        <ele>156</ele>
        <time>2021-01-17T14:47:54Z</time>
      </trkpt>
      <trkpt lat="48.72122" lon="2.07138">
        <ele>155</ele>
        <time>2021-01-17T14:48:01Z</time>
      </trkpt>
      <trkpt lat="48.72112" lon="2.07142">
        <ele>155</ele>
        <time>2021-01-17T14:48:09Z</time>
      </trkpt>
      <trkpt lat="48.72086" lon="2.07143">
        <ele>156</ele>
        <time>2021-01-17T14:48:29Z</time>
      </trkpt>
      <trkpt lat="48.72071" lon="2.07148">
        <ele>156</ele>
        <time>2021-01-17T14:48:41Z</time>
      </trkpt>
      <trkpt lat="48.72066" lon="2.07151">
        <ele>156</ele>
        <time>2021-01-17T14:48:45Z</time>
      </trkpt>
      <trkpt lat="48.72057" lon="2.07157">
        <ele>156</ele>
        <time>2021-01-17T14:48:53Z</time>
      </trkpt>
      <trkpt lat="48.72051" lon="2.07158">
        <ele>156</ele>
        <time>2021-01-17T14:48:58Z</time>
      </trkpt>
      <trkpt lat="48.72045" lon="2.07162">
        <ele>156</ele>
        <time>2021-01-17T14:49:05Z</time>
      </trkpt>
      <trkpt lat="48.72041" lon="2.07167">
        <ele>156</ele>
        <time>2021-01-17T14:49:10Z</time>
      </trkpt>
      <trkpt lat="48.72034" lon="2.07163">
        <ele>157</ele>
        <time>2021-01-17T14:49:20Z</time>
      </trkpt>
      <trkpt lat="48.72022" lon="2.07174">
        <ele>157</ele>
        <time>2021-01-17T14:49:38Z</time>
      </trkpt>
      <trkpt lat="48.72018" lon="2.07178">
        <ele>157</ele>
        <time>2021-01-17T14:49:42Z</time>
      </trkpt>
      <trkpt lat="48.72013" lon="2.0718">
        <ele>157</ele>
        <time>2021-01-17T14:49:46Z</time>
      </trkpt>
      <trkpt lat="48.72003" lon="2.07188">
        <ele>158</ele>
        <time>2021-01-17T14:49:54Z</time>
      </trkpt>
      <trkpt lat="48.71999" lon="2.07192">
        <ele>157</ele>
        <time>2021-01-17T14:49:59Z</time>
      </trkpt>
      <trkpt lat="48.71993" lon="2.07196">
        <ele>158</ele>
        <time>2021-01-17T14:50:03Z</time>
      </trkpt>
      <trkpt lat="48.71989" lon="2.07198">
        <ele>158</ele>
        <time>2021-01-17T14:50:07Z</time>
      </trkpt>
      <trkpt lat="48.71981" lon="2.07205">
        <ele>157</ele>
        <time>2021-01-17T14:50:15Z</time>
      </trkpt>
      <trkpt lat="48.71976" lon="2.07208">
        <ele>157</ele>
        <time>2021-01-17T14:50:20Z</time>
      </trkpt>
      <trkpt lat="48.71957" lon="2.07221">
        <ele>157</ele>
        <time>2021-01-17T14:50:40Z</time>
      </trkpt>
      <trkpt lat="48.71952" lon="2.07221">
        <ele>157</ele>
        <time>2021-01-17T14:50:44Z</time>
      </trkpt>
      <trkpt lat="48.71947" lon="2.07223">
        <ele>157</ele>
        <time>2021-01-17T14:50:47Z</time>
      </trkpt>
      <trkpt lat="48.71937" lon="2.07229">
        <ele>157</ele>
        <time>2021-01-17T14:50:55Z</time>
      </trkpt>
      <trkpt lat="48.71932" lon="2.07233">
        <ele>157</ele>
        <time>2021-01-17T14:50:59Z</time>
      </trkpt>
      <trkpt lat="48.71892" lon="2.0725">
        <ele>157</ele>
        <time>2021-01-17T14:51:30Z</time>
      </trkpt>
      <trkpt lat="48.71886" lon="2.07253">
        <ele>156</ele>
        <time>2021-01-17T14:51:34Z</time>
      </trkpt>
      <trkpt lat="48.71882" lon="2.07256">
        <ele>156</ele>
        <time>2021-01-17T14:51:38Z</time>
      </trkpt>
      <trkpt lat="48.71877" lon="2.07259">
        <ele>156</ele>
        <time>2021-01-17T14:51:42Z</time>
      </trkpt>
      <trkpt lat="48.71872" lon="2.07261">
        <ele>156</ele>
        <time>2021-01-17T14:51:46Z</time>
      </trkpt>
      <trkpt lat="48.71851" lon="2.07268">
        <ele>155</ele>
        <time>2021-01-17T14:52:02Z</time>
      </trkpt>
      <trkpt lat="48.71842" lon="2.07274">
        <ele>155</ele>
        <time>2021-01-17T14:52:08Z</time>
      </trkpt>
      <trkpt lat="48.71816" lon="2.07285">
        <ele>154</ele>
        <time>2021-01-17T14:52:28Z</time>
      </trkpt>
      <trkpt lat="48.718" lon="2.07282">
        <ele>153</ele>
        <time>2021-01-17T14:52:40Z</time>
      </trkpt>
      <trkpt lat="48.71781" lon="2.0727">
        <ele>153</ele>
        <time>2021-01-17T14:52:55Z</time>
      </trkpt>
      <trkpt lat="48.71776" lon="2.07266">
        <ele>153</ele>
        <time>2021-01-17T14:52:59Z</time>
      </trkpt>
      <trkpt lat="48.7176" lon="2.07246">
        <ele>153</ele>
        <time>2021-01-17T14:53:15Z</time>
      </trkpt>
      <trkpt lat="48.71754" lon="2.07243">
        <ele>153</ele>
        <time>2021-01-17T14:53:19Z</time>
      </trkpt>
      <trkpt lat="48.71745" lon="2.07241">
        <ele>154</ele>
        <time>2021-01-17T14:53:27Z</time>
      </trkpt>
      <trkpt lat="48.71733" lon="2.07242">
        <ele>154</ele>
        <time>2021-01-17T14:53:38Z</time>
      </trkpt>
      <trkpt lat="48.71727" lon="2.07244">
        <ele>154</ele>
        <time>2021-01-17T14:53:42Z</time>
      </trkpt>
      <trkpt lat="48.71717" lon="2.07246">
        <ele>155</ele>
        <time>2021-01-17T14:53:50Z</time>
      </trkpt>
      <trkpt lat="48.71709" lon="2.07248">
        <ele>155</ele>
        <time>2021-01-17T14:53:56Z</time>
      </trkpt>
      <trkpt lat="48.71696" lon="2.07257">
        <ele>156</ele>
        <time>2021-01-17T14:54:08Z</time>
      </trkpt>
      <trkpt lat="48.71661" lon="2.07269">
        <ele>155</ele>
        <time>2021-01-17T14:54:35Z</time>
      </trkpt>
      <trkpt lat="48.71644" lon="2.0728">
        <ele>155</ele>
        <time>2021-01-17T14:54:47Z</time>
      </trkpt>
      <trkpt lat="48.716" lon="2.07299">
        <ele>155</ele>
        <time>2021-01-17T14:55:18Z</time>
      </trkpt>
      <trkpt lat="48.7159" lon="2.073">
        <ele>154</ele>
        <time>2021-01-17T14:55:25Z</time>
      </trkpt>
      <trkpt lat="48.7158" lon="2.07296">
        <ele>154</ele>
        <time>2021-01-17T14:55:34Z</time>
      </trkpt>
      <trkpt lat="48.71573" lon="2.07296">
        <ele>155</ele>
        <time>2021-01-17T14:55:39Z</time>
      </trkpt>
      <trkpt lat="48.71566" lon="2.07292">
        <ele>154</ele>
        <time>2021-01-17T14:55:46Z</time>
      </trkpt>
      <trkpt lat="48.71561" lon="2.07291">
        <ele>155</ele>
        <time>2021-01-17T14:55:50Z</time>
      </trkpt>
      <trkpt lat="48.71534" lon="2.07288">
        <ele>155</ele>
        <time>2021-01-17T14:56:10Z</time>
      </trkpt>
      <trkpt lat="48.71524" lon="2.07289">
        <ele>155</ele>
        <time>2021-01-17T14:56:18Z</time>
      </trkpt>
      <trkpt lat="48.71515" lon="2.07295">
        <ele>156</ele>
        <time>2021-01-17T14:56:25Z</time>
      </trkpt>
      <trkpt lat="48.71506" lon="2.07303">
        <ele>156</ele>
        <time>2021-01-17T14:56:32Z</time>
      </trkpt>
      <trkpt lat="48.71504" lon="2.07296">
        <ele>156</ele>
        <time>2021-01-17T14:56:36Z</time>
      </trkpt>
      <trkpt lat="48.71499" lon="2.07295">
        <ele>156</ele>
        <time>2021-01-17T14:56:40Z</time>
      </trkpt>
      <trkpt lat="48.71489" lon="2.07298">
        <ele>156</ele>
        <time>2021-01-17T14:56:48Z</time>
      </trkpt>
      <trkpt lat="48.71471" lon="2.07311">
        <ele>156</ele>
        <time>2021-01-17T14:57:00Z</time>
      </trkpt>
      <trkpt lat="48.71462" lon="2.07313">
        <ele>156</ele>
        <time>2021-01-17T14:57:06Z</time>
      </trkpt>
      <trkpt lat="48.71435" lon="2.07304">
        <ele>155</ele>
        <time>2021-01-17T14:57:28Z</time>
      </trkpt>
      <trkpt lat="48.71406" lon="2.07313">
        <ele>155</ele>
        <time>2021-01-17T14:57:51Z</time>
      </trkpt>
      <trkpt lat="48.71391" lon="2.0733">
        <ele>155</ele>
        <time>2021-01-17T14:58:02Z</time>
      </trkpt>
      <trkpt lat="48.71386" lon="2.07332">
        <ele>155</ele>
        <time>2021-01-17T14:58:05Z</time>
      </trkpt>
      <trkpt lat="48.71379" lon="2.07331">
        <ele>156</ele>
        <time>2021-01-17T14:58:19Z</time>
      </trkpt>
      <trkpt lat="48.71371" lon="2.07321">
        <ele>155</ele>
        <time>2021-01-17T14:58:28Z</time>
      </trkpt>
      <trkpt lat="48.71368" lon="2.07316">
        <ele>155</ele>
        <time>2021-01-17T14:58:33Z</time>
      </trkpt>
      <trkpt lat="48.71359" lon="2.0731">
        <ele>154</ele>
        <time>2021-01-17T14:58:43Z</time>
      </trkpt>
      <trkpt lat="48.71354" lon="2.07308">
        <ele>152</ele>
        <time>2021-01-17T14:58:51Z</time>
      </trkpt>
      <trkpt lat="48.71345" lon="2.07299">
        <ele>151</ele>
        <time>2021-01-17T14:59:01Z</time>
      </trkpt>
      <trkpt lat="48.71332" lon="2.07295">
        <ele>149</ele>
        <time>2021-01-17T14:59:13Z</time>
      </trkpt>
      <trkpt lat="48.71312" lon="2.073">
        <ele>146</ele>
        <time>2021-01-17T14:59:29Z</time>
      </trkpt>
      <trkpt lat="48.71301" lon="2.07298">
        <ele>144</ele>
        <time>2021-01-17T14:59:41Z</time>
      </trkpt>
      <trkpt lat="48.71293" lon="2.07291">
        <ele>142</ele>
        <time>2021-01-17T14:59:52Z</time>
      </trkpt>
      <trkpt lat="48.71288" lon="2.0729">
        <ele>141</ele>
        <time>2021-01-17T14:59:55Z</time>
      </trkpt>
      <trkpt lat="48.71253" lon="2.07259">
        <ele>133</ele>
        <time>2021-01-17T15:00:31Z</time>
      </trkpt>
      <trkpt lat="48.71228" lon="2.07239">
        <ele>128</ele>
        <time>2021-01-17T15:00:55Z</time>
      </trkpt>
      <trkpt lat="48.71218" lon="2.07243">
        <ele>127</ele>
        <time>2021-01-17T15:01:01Z</time>
      </trkpt>
      <trkpt lat="48.71186" lon="2.07212">
        <ele>119</ele>
        <time>2021-01-17T15:01:32Z</time>
      </trkpt>
      <trkpt lat="48.71168" lon="2.07203">
        <ele>116</ele>
        <time>2021-01-17T15:01:48Z</time>
      </trkpt>
      <trkpt lat="48.7113" lon="2.07191">
        <ele>110</ele>
        <time>2021-01-17T15:02:18Z</time>
      </trkpt>
      <trkpt lat="48.71121" lon="2.07184">
        <ele>109</ele>
        <time>2021-01-17T15:02:25Z</time>
      </trkpt>
      <trkpt lat="48.71114" lon="2.07174">
        <ele>109</ele>
        <time>2021-01-17T15:02:32Z</time>
      </trkpt>
      <trkpt lat="48.71102" lon="2.07152">
        <ele>107</ele>
        <time>2021-01-17T15:02:51Z</time>
      </trkpt>
      <trkpt lat="48.71061" lon="2.07119">
        <ele>101</ele>
        <time>2021-01-17T15:03:28Z</time>
      </trkpt>
      <trkpt lat="48.71055" lon="2.07113">
        <ele>100</ele>
        <time>2021-01-17T15:03:33Z</time>
      </trkpt>
      <trkpt lat="48.71037" lon="2.07084">
        <ele>95</ele>
        <time>2021-01-17T15:03:54Z</time>
      </trkpt>
      <trkpt lat="48.70996" lon="2.07062">
        <ele>90</ele>
        <time>2021-01-17T15:04:27Z</time>
      </trkpt>
      <trkpt lat="48.70972" lon="2.07049">
        <ele>86</ele>
        <time>2021-01-17T15:04:47Z</time>
      </trkpt>
      <trkpt lat="48.70969" lon="2.07043">
        <ele>84</ele>
        <time>2021-01-17T15:04:51Z</time>
      </trkpt>
      <trkpt lat="48.7096" lon="2.07039">
        <ele>82</ele>
        <time>2021-01-17T15:05:01Z</time>
      </trkpt>
      <trkpt lat="48.70947" lon="2.07025">
        <ele>79</ele>
        <time>2021-01-17T15:05:15Z</time>
      </trkpt>
      <trkpt lat="48.70944" lon="2.07018">
        <ele>78</ele>
        <time>2021-01-17T15:05:19Z</time>
      </trkpt>
      <trkpt lat="48.70942" lon="2.07002">
        <ele>77</ele>
        <time>2021-01-17T15:05:27Z</time>
      </trkpt>
      <trkpt lat="48.70933" lon="2.06974">
        <ele>74</ele>
        <time>2021-01-17T15:05:43Z</time>
      </trkpt>
      <trkpt lat="48.70927" lon="2.06972">
        <ele>73</ele>
        <time>2021-01-17T15:05:47Z</time>
      </trkpt>
      <trkpt lat="48.70922" lon="2.06973">
        <ele>72</ele>
        <time>2021-01-17T15:05:51Z</time>
      </trkpt>
      <trkpt lat="48.70917" lon="2.06978">
        <ele>72</ele>
        <time>2021-01-17T15:05:55Z</time>
      </trkpt>
      <trkpt lat="48.70874" lon="2.07005">
        <ele>73</ele>
        <time>2021-01-17T15:06:29Z</time>
      </trkpt>
      <trkpt lat="48.7087" lon="2.0701">
        <ele>73</ele>
        <time>2021-01-17T15:06:32Z</time>
      </trkpt>
      <trkpt lat="48.70868" lon="2.07016">
        <ele>73</ele>
        <time>2021-01-17T15:06:36Z</time>
      </trkpt>
      <trkpt lat="48.70856" lon="2.07029">
        <ele>72</ele>
        <time>2021-01-17T15:06:46Z</time>
      </trkpt>
      <trkpt lat="48.70838" lon="2.07046">
        <ele>71</ele>
        <time>2021-01-17T15:07:00Z</time>
      </trkpt>
      <trkpt lat="48.70831" lon="2.07057">
        <ele>71</ele>
        <time>2021-01-17T15:07:10Z</time>
      </trkpt>
      <trkpt lat="48.7079" lon="2.07094">
        <ele>69</ele>
        <time>2021-01-17T15:07:45Z</time>
      </trkpt>
      <trkpt lat="48.70765" lon="2.07116">
        <ele>69</ele>
        <time>2021-01-17T15:08:04Z</time>
      </trkpt>
      <trkpt lat="48.70738" lon="2.07127">
        <ele>68</ele>
        <time>2021-01-17T15:08:25Z</time>
      </trkpt>
      <trkpt lat="48.70721" lon="2.07142">
        <ele>68</ele>
        <time>2021-01-17T15:08:39Z</time>
      </trkpt>
      <trkpt lat="48.70706" lon="2.07139">
        <ele>69</ele>
        <time>2021-01-17T15:09:02Z</time>
      </trkpt>
      <trkpt lat="48.70697" lon="2.07146">
        <ele>69</ele>
        <time>2021-01-17T15:09:10Z</time>
      </trkpt>
      <trkpt lat="48.70689" lon="2.07154">
        <ele>69</ele>
        <time>2021-01-17T15:09:19Z</time>
      </trkpt>
      <trkpt lat="48.70667" lon="2.07159">
        <ele>69</ele>
        <time>2021-01-17T15:09:36Z</time>
      </trkpt>
      <trkpt lat="48.70641" lon="2.07147">
        <ele>70</ele>
        <time>2021-01-17T15:09:57Z</time>
      </trkpt>
      <trkpt lat="48.70631" lon="2.07143">
        <ele>69</ele>
        <time>2021-01-17T15:10:04Z</time>
      </trkpt>
      <trkpt lat="48.70622" lon="2.07143">
        <ele>69</ele>
        <time>2021-01-17T15:10:11Z</time>
      </trkpt>
      <trkpt lat="48.70613" lon="2.07148">
        <ele>70</ele>
        <time>2021-01-17T15:10:19Z</time>
      </trkpt>
      <trkpt lat="48.70606" lon="2.07159">
        <ele>70</ele>
        <time>2021-01-17T15:10:27Z</time>
      </trkpt>
      <trkpt lat="48.70598" lon="2.07165">
        <ele>70</ele>
        <time>2021-01-17T15:10:37Z</time>
      </trkpt>
      <trkpt lat="48.70594" lon="2.07165">
        <ele>69</ele>
        <time>2021-01-17T15:10:41Z</time>
      </trkpt>
      <trkpt lat="48.70589" lon="2.0716">
        <ele>69</ele>
        <time>2021-01-17T15:10:45Z</time>
      </trkpt>
      <trkpt lat="48.70579" lon="2.07144">
        <ele>68</ele>
        <time>2021-01-17T15:10:57Z</time>
      </trkpt>
      <trkpt lat="48.70569" lon="2.07135">
        <ele>69</ele>
        <time>2021-01-17T15:11:05Z</time>
      </trkpt>
      <trkpt lat="48.7056" lon="2.07118">
        <ele>68</ele>
        <time>2021-01-17T15:11:18Z</time>
      </trkpt>
      <trkpt lat="48.7055" lon="2.07093">
        <ele>69</ele>
        <time>2021-01-17T15:11:35Z</time>
      </trkpt>
      <trkpt lat="48.70546" lon="2.07088">
        <ele>69</ele>
        <time>2021-01-17T15:11:39Z</time>
      </trkpt>
      <trkpt lat="48.70542" lon="2.07082">
        <ele>69</ele>
        <time>2021-01-17T15:11:43Z</time>
      </trkpt>
      <trkpt lat="48.70539" lon="2.07076">
        <ele>69</ele>
        <time>2021-01-17T15:11:47Z</time>
      </trkpt>
      <trkpt lat="48.70536" lon="2.0707">
        <ele>69</ele>
        <time>2021-01-17T15:11:51Z</time>
      </trkpt>
      <trkpt lat="48.70533" lon="2.07065">
        <ele>69</ele>
        <time>2021-01-17T15:11:55Z</time>
      </trkpt>
      <trkpt lat="48.70528" lon="2.07064">
        <ele>69</ele>
        <time>2021-01-17T15:11:59Z</time>
      </trkpt>
      <trkpt lat="48.70524" lon="2.07059">
        <ele>69</ele>
        <time>2021-01-17T15:12:03Z</time>
      </trkpt>
      <trkpt lat="48.70521" lon="2.07051">
        <ele>69</ele>
        <time>2021-01-17T15:12:10Z</time>
      </trkpt>
      <trkpt lat="48.70517" lon="2.07045">
        <ele>69</ele>
        <time>2021-01-17T15:12:14Z</time>
      </trkpt>
      <trkpt lat="48.70514" lon="2.0704">
        <ele>69</ele>
        <time>2021-01-17T15:12:17Z</time>
      </trkpt>
      <trkpt lat="48.7051" lon="2.07033">
        <ele>69</ele>
        <time>2021-01-17T15:12:21Z</time>
      </trkpt>
      <trkpt lat="48.70506" lon="2.07027">
        <ele>69</ele>
        <time>2021-01-17T15:12:25Z</time>
      </trkpt>
      <trkpt lat="48.70497" lon="2.07">
        <ele>69</ele>
        <time>2021-01-17T15:12:40Z</time>
      </trkpt>
      <trkpt lat="48.70492" lon="2.06997">
        <ele>69</ele>
        <time>2021-01-17T15:12:45Z</time>
      </trkpt>
      <trkpt lat="48.70472" lon="2.06993">
        <ele>69</ele>
        <time>2021-01-17T15:13:01Z</time>
      </trkpt>
      <trkpt lat="48.70462" lon="2.06994">
        <ele>69</ele>
        <time>2021-01-17T15:13:09Z</time>
      </trkpt>
      <trkpt lat="48.70457" lon="2.06993">
        <ele>69</ele>
        <time>2021-01-17T15:13:13Z</time>
      </trkpt>
      <trkpt lat="48.70452" lon="2.06991">
        <ele>69</ele>
        <time>2021-01-17T15:13:17Z</time>
      </trkpt>
      <trkpt lat="48.70448" lon="2.0699">
        <ele>69</ele>
        <time>2021-01-17T15:13:21Z</time>
      </trkpt>
      <trkpt lat="48.70438" lon="2.06991">
        <ele>69</ele>
        <time>2021-01-17T15:13:29Z</time>
      </trkpt>
      <trkpt lat="48.70433" lon="2.06993">
        <ele>70</ele>
        <time>2021-01-17T15:13:33Z</time>
      </trkpt>
      <trkpt lat="48.70401" lon="2.06981">
        <ele>70</ele>
        <time>2021-01-17T15:14:00Z</time>
      </trkpt>
      <trkpt lat="48.70393" lon="2.06975">
        <ele>70</ele>
        <time>2021-01-17T15:14:06Z</time>
      </trkpt>
      <trkpt lat="48.70383" lon="2.06976">
        <ele>71</ele>
        <time>2021-01-17T15:14:16Z</time>
      </trkpt>
      <trkpt lat="48.70369" lon="2.06974">
        <ele>71</ele>
        <time>2021-01-17T15:14:25Z</time>
      </trkpt>
      <trkpt lat="48.70348" lon="2.06973">
        <ele>72</ele>
        <time>2021-01-17T15:14:42Z</time>
      </trkpt>
      <trkpt lat="48.70339" lon="2.06975">
        <ele>73</ele>
        <time>2021-01-17T15:14:51Z</time>
      </trkpt>
      <trkpt lat="48.70329" lon="2.06974">
        <ele>73</ele>
        <time>2021-01-17T15:14:58Z</time>
      </trkpt>
      <trkpt lat="48.70319" lon="2.06989">
        <ele>76</ele>
        <time>2021-01-17T15:15:09Z</time>
      </trkpt>
      <trkpt lat="48.70305" lon="2.06991">
        <ele>76</ele>
        <time>2021-01-17T15:15:19Z</time>
      </trkpt>
      <trkpt lat="48.70299" lon="2.07002">
        <ele>77</ele>
        <time>2021-01-17T15:15:26Z</time>
      </trkpt>
      <trkpt lat="48.70293" lon="2.07014">
        <ele>77</ele>
        <time>2021-01-17T15:15:33Z</time>
      </trkpt>
      <trkpt lat="48.7029" lon="2.07021">
        <ele>77</ele>
        <time>2021-01-17T15:15:37Z</time>
      </trkpt>
      <trkpt lat="48.70288" lon="2.07028">
        <ele>78</ele>
        <time>2021-01-17T15:15:42Z</time>
      </trkpt>
      <trkpt lat="48.70288" lon="2.07036">
        <ele>78</ele>
        <time>2021-01-17T15:15:47Z</time>
      </trkpt>
    </trkseg>
  </trk>
</gpx>